M I D A S
Marine Information and Data Acquisition System
Tripno 1072 of the Zeeleeuw from 2006-04-19 07:21:08 to 2006-04-19 10:26:23
Back to CruiseResearch ActivitiesStationsMapUnderway DataData graphs

EquipmentUnitsComment
TimeDGPSUTC
LatitudeDGPSDM.mWGS84
LongitudeDGPSDM.mWGS84
TemperatureSBE03/SBE38deg celciusITS90
ConductivitySBE21S/mITS90
SalinitySBE21 Practical Salinity Units
ChlorophylAChelsea fluorimeterg/lCalibrated in Aceton
Missing or incorrect values are displayed as -999
Sea surface data collected by the RV Zeeleeuw from 2006-04-19 07:20:00 to 2006-04-19 10:39:15
                                                                                    Next 1000 lines
Time Latitude Longitude Temperature Conductivity Salinity ChlorophylA
2006-04-19 07:20:09 51°13.602 2°56.095 -999 0.017238 0.095343 11.758648
2006-04-19 07:20:14 51°13.602 2°56.092 -999 0.017238 0.095343 11.758648
2006-04-19 07:20:20 51°13.604 2°56.087 -999 0.017238 0.095343 11.758648
2006-04-19 07:20:25 51°13.605 2°56.083 -999 0.017238 0.095343 11.724939
2006-04-19 07:20:30 51°13.606 2°56.078 -999 0.017238 0.095343 11.724939
2006-04-19 07:20:35 51°13.607 2°56.072 -999 0.017238 0.095343 11.724939
2006-04-19 07:20:40 51°13.608 2°56.066 -999 0.017238 0.095343 11.724939
2006-04-19 07:20:45 51°13.61 2°56.06 -999 0.017238 0.095343 11.724939
2006-04-19 07:20:50 51°13.611 2°56.053 -999 0.017238 0.095343 11.724939
2006-04-19 07:20:55 51°13.613 2°56.046 -999 0.017238 0.095343 11.724939
2006-04-19 07:21:00 51°13.614 2°56.039 -999 0.017238 0.095343 11.724939
2006-04-19 07:21:05 51°13.616 2°56.031 -999 0.017238 0.095343 11.724939
2006-04-19 07:21:10 51°13.617 2°56.024 -999 0.017238 0.095343 11.724939
2006-04-19 07:21:15 51°13.618 2°56.016 -999 0.017238 0.095343 11.724939
2006-04-19 07:21:20 51°13.62 2°56.007 -999 0.017238 0.095343 11.724939
2006-04-19 07:21:25 51°13.622 2°55.998 -999 0.017238 0.095343 11.724939
2006-04-19 07:21:30 51°13.623 2°55.99 -999 0.017238 0.095343 11.69123
2006-04-19 07:21:35 51°13.625 2°55.982 -999 0.017238 0.095343 11.69123
2006-04-19 07:21:40 51°13.627 2°55.974 -999 0.017238 0.095392 11.69123
2006-04-19 07:21:45 51°13.629 2°55.966 -999 0.017238 0.095392 11.69123
2006-04-19 07:21:50 51°13.632 2°55.958 -999 0.017238 0.09547 11.69123
2006-04-19 07:21:55 51°13.634 2°55.95 -999 3.363625 23.806897 17.185862
2006-04-19 07:22:00 51°13.636 2°55.941 -999 3.304536 23.907259 27.163845
2006-04-19 07:22:05 51°13.638 2°55.933 -999 3.588226 27.702416 20.354546
2006-04-19 07:22:10 51°13.641 2°55.925 -999 3.874775 30.867131 11.792358
2006-04-19 07:22:15 51°13.643 2°55.917 -999 3.874775 30.867131 11.792358
2006-04-19 07:22:20 51°13.646 2°55.908 -999 3.846607 31.752771 11.219298
2006-04-19 07:22:25 51°13.649 2°55.9 -999 3.751611 31.802327 11.185589
2006-04-19 07:22:30 51°13.651 2°55.892 -999 3.660358 31.481361 11.185589
2006-04-19 07:22:35 51°13.654 2°55.884 -999 3.609717 31.368095 11.219298
2006-04-19 07:22:40 51°13.657 2°55.875 -999 3.571403 31.31155 11.185589
2006-04-19 07:22:45 51°13.66 2°55.867 -999 3.571403 31.31155 11.185589
2006-04-19 07:22:50 51°13.663 2°55.859 -999 3.555458 31.347847 11.151879
2006-04-19 07:22:55 51°13.667 2°55.851 -999 3.533196 31.263377 11.08446
2006-04-19 07:23:00 51°13.67 2°55.842 -999 3.51342 31.164706 11.050751
2006-04-19 07:23:05 51°13.673 2°55.834 -999 3.504413 31.161415 10.949623
2006-04-19 07:23:10 51°13.677 2°55.824 -999 3.488158 31.073689 10.882204
2006-04-19 07:23:15 51°13.68 2°55.815 -999 3.488158 31.073689 10.882204
2006-04-19 07:23:20 51°13.684 2°55.806 -999 3.496649 31.205185 10.814785
2006-04-19 07:23:25 51°13.687 2°55.798 -999 3.489195 31.172112 10.679947
2006-04-19 07:23:30 51°13.69 2°55.79 -999 3.468592 31.011509 10.612529
2006-04-19 07:23:35 51°13.693 2°55.782 -999 3.479567 31.157512 10.578819
2006-04-19 07:23:40 51°13.695 2°55.775 -999 3.481431 31.197283 10.578819
2006-04-19 07:23:45 51°13.698 2°55.768 -999 3.481431 31.197283 10.578819
2006-04-19 07:23:50 51°13.701 2°55.762 -999 3.483398 31.241187 10.646238
2006-04-19 07:23:54 51°13.703 2°55.756 -999 3.485469 31.278569 10.679947
2006-04-19 07:24:00 51°13.706 2°55.749 -999 3.484434 31.27588 10.814785
2006-04-19 07:24:04 51°13.707 2°55.744 -999 3.480086 31.243225 11.11817
2006-04-19 07:24:09 51°13.709 2°55.739 -999 3.487644 31.337667 11.219298
2006-04-19 07:24:15 51°13.71 2°55.734 -999 3.487644 31.337667 11.219298
2006-04-19 07:24:20 51°13.712 2°55.73 -999 3.484124 31.324736 11.286717
2006-04-19 07:24:25 51°13.713 2°55.728 -999 3.478947 31.289896 11.354136
2006-04-19 07:24:30 51°13.714 2°55.727 -999 3.477809 31.28694 11.387845
2006-04-19 07:24:35 51°13.715 2°55.727 -999 3.472114 31.23467 11.455264
2006-04-19 07:24:40 51°13.716 2°55.728 -999 3.470665 31.224017 11.488973
2006-04-19 07:24:45 51°13.717 2°55.729 -999 3.470665 31.224017 11.488973
2006-04-19 07:24:50 51°13.718 2°55.731 -999 3.468905 31.21026 11.522683
2006-04-19 07:24:54 51°13.719 2°55.733 -999 3.460415 31.136168 11.522683
2006-04-19 07:25:00 51°13.72 2°55.736 -999 3.465695 31.195768 11.522683
2006-04-19 07:25:04 51°13.721 2°55.738 -999 3.463935 31.187348 11.522683
2006-04-19 07:25:09 51°13.723 2°55.74 -999 3.458241 31.134271 11.421554
2006-04-19 07:25:14 51°13.724 2°55.742 -999 3.458241 31.134271 11.421554
2006-04-19 07:25:20 51°13.725 2°55.743 -999 3.446853 31.024324 11.354136
2006-04-19 07:25:25 51°13.726 2°55.742 -999 3.462279 31.184542 11.286717
2006-04-19 07:25:30 51°13.726 2°55.742 -999 3.462486 31.189668 11.219298
2006-04-19 07:25:35 51°13.725 2°55.741 -999 3.455446 31.117777 11.11817
2006-04-19 07:25:39 51°13.725 2°55.739 -999 3.442919 30.997186 11.151879
2006-04-19 07:25:45 51°13.723 2°55.737 -999 3.442919 30.997186 11.151879
2006-04-19 07:25:50 51°13.722 2°55.734 -999 3.44706 31.04388 11.151879
2006-04-19 07:25:55 51°13.72 2°55.731 -999 3.442505 30.999886 11.151879
2006-04-19 07:26:00 51°13.718 2°55.728 -999 3.443644 31.010504 11.151879
2006-04-19 07:26:05 51°13.716 2°55.726 -999 3.435569 30.930597 11.151879
2006-04-19 07:26:10 51°13.716 2°55.724 -999 3.425527 30.831077 11.11817
2006-04-19 07:26:15 51°13.716 2°55.724 -999 3.425527 30.831077 11.11817
2006-04-19 07:26:20 51°13.716 2°55.723 -999 3.431842 30.89489 11.11817
2006-04-19 07:26:25 51°13.718 2°55.723 -999 3.438778 30.970244 11.185589
2006-04-19 07:26:30 51°13.72 2°55.724 -999 3.436086 30.94942 11.286717
2006-04-19 07:26:35 51°13.722 2°55.723 -999 3.430392 30.895561 11.387845
2006-04-19 07:26:40 51°13.725 2°55.723 -999 3.441366 31.007508 11.421554
2006-04-19 07:26:45 51°13.729 2°55.722 -999 3.441366 31.007508 11.421554
2006-04-19 07:26:50 51°13.732 2°55.72 -999 3.449131 31.089717 11.522683
2006-04-19 07:26:55 51°13.736 2°55.717 -999 3.437536 30.977577 11.522683
2006-04-19 07:27:00 51°13.74 2°55.715 -999 3.452237 31.127655 11.488973
2006-04-19 07:27:04 51°13.743 2°55.712 -999 3.447889 31.087968 11.455264
2006-04-19 07:27:08 51°13.747 2°55.708 -999 3.445818 31.068017 11.421554
2006-04-19 07:27:14 51°13.753 2°55.703 -999 3.445818 31.068017 11.421554
2006-04-19 07:27:20 51°13.759 2°55.697 -999 3.433395 30.939975 11.286717
2006-04-19 07:27:24 51°13.764 2°55.692 -999 3.413518 30.739093 11.253007
2006-04-19 07:27:30 51°13.772 2°55.685 -999 3.410516 30.709112 11.286717
2006-04-19 07:27:34 51°13.777 2°55.68 -999 3.4071 30.676505 11.354136
2006-04-19 07:27:39 51°13.785 2°55.674 -999 3.400061 30.608481 11.455264
2006-04-19 07:27:44 51°13.792 2°55.668 -999 3.400061 30.608481 11.455264
2006-04-19 07:27:49 51°13.8 2°55.661 -999 3.395816 30.566866 11.522683
2006-04-19 07:27:55 51°13.809 2°55.654 -999 3.416313 30.77154 11.556392
2006-04-19 07:27:59 51°13.816 2°55.649 -999 3.415071 30.756866 11.455264
2006-04-19 07:28:04 51°13.824 2°55.642 -999 3.408963 30.693606 11.354136
2006-04-19 07:28:10 51°13.834 2°55.635 -999 3.407514 30.683651 11.253007
2006-04-19 07:28:14 51°13.84 2°55.629 -999 3.407514 30.683651 11.253007
2006-04-19 07:28:20 51°13.85 2°55.621 -999 3.403994 30.653018 11.185589
2006-04-19 07:28:24 51°13.857 2°55.616 -999 3.408549 30.704536 11.11817
2006-04-19 07:28:30 51°13.867 2°55.608 -999 3.415278 30.776302 11.050751
2006-04-19 07:28:35 51°13.875 2°55.601 -999 3.417349 30.800021 11.050751
2006-04-19 07:28:40 51°13.884 2°55.594 -999 3.418384 30.811883 11.185589
2006-04-19 07:28:45 51°13.892 2°55.587 -999 3.418384 30.811883 11.185589
2006-04-19 07:28:50 51°13.9 2°55.581 -999 3.423767 30.863435 11.320426
2006-04-19 07:28:55 51°13.908 2°55.575 -999 3.419109 30.816101 11.455264
2006-04-19 07:29:00 51°13.916 2°55.569 -999 3.429875 30.923758 11.522683
2006-04-19 07:29:05 51°13.924 2°55.563 -999 3.43267 30.950197 11.556392
2006-04-19 07:29:09 51°13.93 2°55.558 -999 3.431014 30.934389 11.522683
2006-04-19 07:29:15 51°13.94 2°55.552 -999 3.431014 30.934389 11.522683
2006-04-19 07:29:20 51°13.947 2°55.546 -999 3.438882 31.019191 11.522683
2006-04-19 07:29:24 51°13.953 2°55.542 -999 3.444369 31.077161 11.556392
2006-04-19 07:29:29 51°13.961 2°55.536 -999 3.447682 31.1088 11.590101
2006-04-19 07:29:34 51°13.969 2°55.531 -999 3.45379 31.171495 11.65752
2006-04-19 07:29:39 51°13.977 2°55.526 -999 3.462384 31.26602 11.758648
2006-04-19 07:29:45 51°13.986 2°55.519 -999 3.462384 31.26602 11.758648
2006-04-19 07:29:50 51°13.993 2°55.514 -999 3.467353 31.321216 11.792358
2006-04-19 07:29:54 51°13.999 2°55.509 -999 3.47222 31.373862 11.927195
2006-04-19 07:30:00 51°14.008 2°55.503 -999 3.474187 31.398223 12.062033
2006-04-19 07:30:04 51°14.014 2°55.499 -999 3.476775 31.424189 12.163161
2006-04-19 07:30:10 51°14.023 2°55.492 -999 3.479053 31.450135 12.23058
2006-04-19 07:30:14 51°14.029 2°55.488 -999 3.479053 31.450135 12.23058
2006-04-19 07:30:19 51°14.036 2°55.482 -999 3.480088 31.464393 12.196871
2006-04-19 07:30:25 51°14.045 2°55.476 -999 3.478846 31.450377 12.129452
2006-04-19 07:30:30 51°14.052 2°55.47 -999 3.473048 31.389113 11.994614
2006-04-19 07:30:35 51°14.059 2°55.465 -999 3.466215 31.315186 11.893486
2006-04-19 07:30:39 51°14.065 2°55.461 -999 3.454722 31.196153 11.758648
2006-04-19 07:30:44 51°14.072 2°55.455 -999 3.454722 31.196153 11.758648
2006-04-19 07:30:50 51°14.081 2°55.449 -999 3.440849 31.056419 11.65752
2006-04-19 07:30:55 51°14.088 2°55.443 -999 3.435777 31.006387 11.590101
2006-04-19 07:30:59 51°14.094 2°55.438 -999 3.432878 30.977367 11.556392
2006-04-19 07:31:05 51°14.102 2°55.431 -999 3.42677 30.913951 11.522683
2006-04-19 07:31:10 51°14.11 2°55.426 -999 3.421076 30.856979 11.522683
2006-04-19 07:31:15 51°14.117 2°55.421 -999 3.421076 30.856979 11.522683
2006-04-19 07:31:20 51°14.124 2°55.415 -999 3.415693 30.805398 11.522683
2006-04-19 07:31:25 51°14.132 2°55.408 -999 3.414347 30.79118 11.590101
2006-04-19 07:31:30 51°14.14 2°55.401 -999 3.414968 30.794366 11.65752
2006-04-19 07:31:34 51°14.146 2°55.394 -999 3.414658 30.790504 11.758648
2006-04-19 07:31:40 51°14.157 2°55.384 -999 3.416107 30.808784 11.859777
2006-04-19 07:31:45 51°14.166 2°55.375 -999 3.416107 30.808784 11.859777
2006-04-19 07:31:50 51°14.175 2°55.365 -999 3.421076 30.862287 11.927195
2006-04-19 07:31:54 51°14.182 2°55.357 -999 3.423561 30.887909 11.960905
2006-04-19 07:32:00 51°14.193 2°55.345 -999 3.429047 30.942827 11.893486
2006-04-19 07:32:05 51°14.203 2°55.334 -999 3.429254 30.942618 11.859777
2006-04-19 07:32:10 51°14.212 2°55.323 -999 3.429772 30.947039 11.792358
2006-04-19 07:32:15 51°14.221 2°55.311 -999 3.429772 30.947039 11.792358
2006-04-19 07:32:20 51°14.231 2°55.299 -999 3.429358 30.943654 11.826067
2006-04-19 07:32:25 51°14.24 2°55.286 -999 3.431636 30.966453 11.893486
2006-04-19 07:32:30 51°14.249 2°55.273 -999 3.435362 31.003003 12.028324
2006-04-19 07:32:35 51°14.258 2°55.26 -999 3.438675 31.036937 12.095742
2006-04-19 07:32:40 51°14.267 2°55.246 -999 3.441057 31.060019 12.163161
2006-04-19 07:32:45 51°14.275 2°55.232 -999 3.441057 31.060019 12.163161
2006-04-19 07:32:50 51°14.283 2°55.217 -999 3.443024 31.079719 12.163161
2006-04-19 07:32:54 51°14.29 2°55.205 -999 3.446854 31.120382 12.23058
2006-04-19 07:33:00 51°14.299 2°55.187 -999 3.449649 31.149152 12.297999
2006-04-19 07:33:05 51°14.307 2°55.171 -999 3.452548 31.179732 12.331708
2006-04-19 07:33:10 51°14.315 2°55.156 -999 3.451306 31.164984 12.365418
2006-04-19 07:33:15 51°14.323 2°55.14 -999 3.451306 31.164984 12.365418
2006-04-19 07:33:20 51°14.331 2°55.124 -999 3.455137 31.20337 12.365418
2006-04-19 07:33:24 51°14.337 2°55.111 -999 3.452445 31.178694 12.331708
2006-04-19 07:33:29 51°14.344 2°55.095 -999 3.457311 31.22823 12.365418
2006-04-19 07:33:34 51°14.352 2°55.079 -999 3.450788 31.163627 12.297999
2006-04-19 07:33:40 51°14.361 2°55.059 -999 3.448925 31.143422 12.23058
2006-04-19 07:33:44 51°14.367 2°55.045 -999 3.448925 31.143422 12.23058
2006-04-19 07:33:49 51°14.374 2°55.028 -999 3.429254 30.944139 12.196871
2006-04-19 07:33:54 51°14.38 2°55.009 -999 3.42853 30.934604 12.163161
2006-04-19 07:33:59 51°14.387 2°54.99 -999 3.425424 30.901243 12.196871
2006-04-19 07:34:05 51°14.394 2°54.965 -999 3.426563 30.911879 12.23058
2006-04-19 07:34:09 51°14.398 2°54.948 -999 3.427391 30.920927 12.23058
2006-04-19 07:34:14 51°14.403 2°54.926 -999 3.427391 30.920927 12.23058
2006-04-19 07:34:20 51°14.409 2°54.899 -999 3.43236 30.972185 12.264289
2006-04-19 07:34:25 51°14.413 2°54.875 -999 3.43381 30.987456 12.264289
2006-04-19 07:34:30 51°14.416 2°54.851 -999 3.435259 31.005015 12.297999
2006-04-19 07:34:34 51°14.418 2°54.83 -999 3.438572 31.040478 12.297999
2006-04-19 07:34:39 51°14.421 2°54.805 -999 3.44116 31.067164 12.331708
2006-04-19 07:34:45 51°14.423 2°54.774 -999 3.44116 31.067164 12.331708
2006-04-19 07:34:50 51°14.424 2°54.748 -999 3.445819 31.116129 12.365418
2006-04-19 07:34:54 51°14.424 2°54.727 -999 3.451099 31.174403 12.399127
2006-04-19 07:35:00 51°14.425 2°54.694 -999 3.46549 31.32486 12.432836
2006-04-19 07:35:05 51°14.425 2°54.668 -999 3.470253 31.374186 12.466546
2006-04-19 07:35:10 51°14.424 2°54.64 -999 3.48423 31.523017 12.432836
2006-04-19 07:35:14 51°14.423 2°54.618 -999 3.48423 31.523017 12.432836
2006-04-19 07:35:19 51°14.42 2°54.59 -999 3.493342 31.623885 12.365418
2006-04-19 07:35:24 51°14.417 2°54.563 -999 3.504214 31.742557 12.331708
2006-04-19 07:35:30 51°14.412 2°54.53 -999 3.514258 31.856941 12.264289
2006-04-19 07:35:34 51°14.407 2°54.508 -999 3.519849 31.920316 12.23058
2006-04-19 07:35:40 51°14.399 2°54.477 -999 3.527719 32.00827 12.23058
2006-04-19 07:35:44 51°14.393 2°54.456 -999 3.527719 32.00827 12.23058
2006-04-19 07:35:49 51°14.385 2°54.431 -999 3.535899 32.099433 12.23058
2006-04-19 07:35:55 51°14.373 2°54.401 -999 3.543976 32.191222 12.23058
2006-04-19 07:35:59 51°14.366 2°54.381 -999 3.546876 32.226049 12.23058
2006-04-19 07:36:05 51°14.355 2°54.352 -999 3.5505 32.269009 12.196871
2006-04-19 07:36:09 51°14.347 2°54.332 -999 3.550293 32.271697 12.163161
2006-04-19 07:36:14 51°14.339 2°54.306 -999 3.550293 32.271697 12.163161
2006-04-19 07:36:20 51°14.328 2°54.275 -999 3.554746 32.319865 12.129452
2006-04-19 07:36:24 51°14.321 2°54.255 -999 3.5534 32.309456 12.095742
2006-04-19 07:36:30 51°14.31 2°54.224 -999 3.569658 32.474574 12.062033
2006-04-19 07:36:34 51°14.302 2°54.204 -999 3.574629 32.524034 12.028324
2006-04-19 07:36:39 51°14.293 2°54.178 -999 3.5825 32.602833 11.994614
2006-04-19 07:36:45 51°14.283 2°54.148 -999 3.5825 32.602833 11.994614
2006-04-19 07:36:49 51°14.275 2°54.127 -999 3.587885 32.662154 12.028324
2006-04-19 07:36:54 51°14.267 2°54.102 -999 3.606216 32.853411 12.095742
2006-04-19 07:36:59 51°14.258 2°54.075 -999 3.622994 33.023428 12.23058
2006-04-19 07:37:05 51°14.248 2°54.044 -999 3.634594 33.138592 12.297999
2006-04-19 07:37:10 51°14.24 2°54.018 -999 3.642776 33.221587 12.365418
2006-04-19 07:37:14 51°14.234 2°53.996 -999 3.642776 33.221587 12.365418
2006-04-19 07:37:20 51°14.224 2°53.965 -999 3.650233 33.29561 12.432836
2006-04-19 07:37:25 51°14.215 2°53.939 -999 3.628379 33.073127 12.500255
2006-04-19 07:37:30 51°14.206 2°53.914 -999 3.657691 33.367179 12.533965
2006-04-19 07:37:34 51°14.198 2°53.894 -999 3.661627 33.399706 12.635093
2006-04-19 07:37:40 51°14.187 2°53.864 -999 3.668256 33.464517 12.76993
2006-04-19 07:37:44 51°14.179 2°53.844 -999 3.668256 33.464517 12.76993
2006-04-19 07:37:50 51°14.168 2°53.814 -999 3.670949 33.490204 12.871059
2006-04-19 07:37:54 51°14.16 2°53.794 -999 3.674678 33.52558 12.972187
2006-04-19 07:38:00 51°14.149 2°53.764 -999 3.676335 33.539094 13.039606
2006-04-19 07:38:04 51°14.142 2°53.744 -999 3.680582 33.580558 13.107024
2006-04-19 07:38:09 51°14.133 2°53.718 -999 3.673642 33.508443 13.174443
2006-04-19 07:38:14 51°14.125 2°53.692 -999 3.673642 33.508443 13.174443
2006-04-19 07:38:20 51°14.115 2°53.66 -999 3.678925 33.560415 13.241862
2006-04-19 07:38:24 51°14.109 2°53.64 -999 3.677785 33.546363 13.309281
2006-04-19 07:38:29 51°14.101 2°53.613 -999 3.678303 33.550792 13.3767
2006-04-19 07:38:34 51°14.093 2°53.587 -999 3.677992 33.549294 13.410409
2006-04-19 07:38:40 51°14.083 2°53.556 -999 3.680168 33.56972 13.444118
2006-04-19 07:38:44 51°14.076 2°53.536 -999 3.680168 33.56972 13.444118
2006-04-19 07:38:50 51°14.066 2°53.505 -999 3.678925 33.554616 13.511537
2006-04-19 07:38:54 51°14.058 2°53.486 -999 3.677682 33.542827 13.545247
2006-04-19 07:38:59 51°14.049 2°53.46 -999 3.676439 33.531038 13.511537
2006-04-19 07:39:05 51°14.037 2°53.431 -999 3.68255 33.593078 13.34299
2006-04-19 07:39:09 51°14.03 2°53.411 -999 3.679546 33.560096 13.140734
2006-04-19 07:39:14 51°14.02 2°53.386 -999 3.679546 33.560096 13.140734
2006-04-19 07:39:18 51°14.012 2°53.367 -999 3.688143 33.642401 12.938477
2006-04-19 07:39:24 51°14.001 2°53.337 -999 3.693426 33.689392 12.80364
2006-04-19 07:39:30 51°13.99 2°53.307 -999 3.69902 33.741198 12.668802
2006-04-19 07:39:34 51°13.983 2°53.287 -999 3.702231 33.767976 12.567674
2006-04-19 07:39:40 51°13.972 2°53.256 -999 3.704924 33.791991 12.500255
2006-04-19 07:39:44 51°13.965 2°53.236 -999 3.704924 33.791991 12.500255
2006-04-19 07:39:49 51°13.957 2°53.21 -999 3.707928 33.820828 12.432836
2006-04-19 07:39:54 51°13.948 2°53.184 -999 3.710104 33.837913 12.297999
2006-04-19 07:40:00 51°13.938 2°53.153 -999 3.710518 33.839617 12.23058
2006-04-19 07:40:05 51°13.929 2°53.128 -999 3.712383 33.856881 12.196871
2006-04-19 07:40:09 51°13.922 2°53.107 -999 3.713936 33.870154 12.196871
2006-04-19 07:40:14 51°13.913 2°53.082 -999 3.713936 33.870154 12.196871
2006-04-19 07:40:19 51°13.904 2°53.057 -999 3.715387 33.882374 12.129452
2006-04-19 07:40:24 51°13.894 2°53.032 -999 3.717873 33.909292 12.163161
2006-04-19 07:40:28 51°13.887 2°53.012 -999 3.718287 33.9135 12.163161
2006-04-19 07:40:35 51°13.874 2°52.977 -999 3.717873 33.911801 12.196871
2006-04-19 07:40:40 51°13.865 2°52.952 -999 3.715697 33.894722 12.23058
2006-04-19 07:40:44 51°13.857 2°52.932 -999 3.715697 33.894722 12.23058
2006-04-19 07:40:50 51°13.847 2°52.901 -999 3.724089 33.984154 12.297999
2006-04-19 07:40:54 51°13.839 2°52.881 -999 3.723467 33.979515 12.297999
2006-04-19 07:41:00 51°13.83 2°52.849 -999 3.725228 34.003283 12.331708
2006-04-19 07:41:05 51°13.821 2°52.823 -999 3.72616 34.014439 12.331708
2006-04-19 07:41:10 51°13.812 2°52.798 -999 3.725021 34.003694 12.331708
2006-04-19 07:41:14 51°13.805 2°52.777 -999 3.725021 34.003694 12.331708
2006-04-19 07:41:20 51°13.795 2°52.746 -999 3.725953 34.01485 12.365418
2006-04-19 07:41:25 51°13.786 2°52.721 -999 3.724089 34.000928 12.399127
2006-04-19 07:41:30 51°13.777 2°52.695 -999 3.721603 33.979007 12.432836
2006-04-19 07:41:34 51°13.769 2°52.675 -999 3.726782 34.035034 12.466546
2006-04-19 07:41:40 51°13.758 2°52.645 -999 3.724192 34.012055 12.533965
2006-04-19 07:41:44 51°13.75 2°52.625 -999 3.724192 34.012055 12.533965
2006-04-19 07:41:49 51°13.74 2°52.601 -999 3.725746 34.032059 12.567674
2006-04-19 07:41:54 51°13.73 2°52.576 -999 3.724607 34.023829 12.635093
2006-04-19 07:41:59 51°13.721 2°52.551 -999 3.725436 34.0331 12.668802
2006-04-19 07:42:04 51°13.711 2°52.526 -999 3.725332 34.032046 12.736221
2006-04-19 07:42:10 51°13.7 2°52.496 -999 3.725021 34.028044 12.736221
2006-04-19 07:42:14 51°13.693 2°52.475 -999 3.725021 34.028044 12.736221
2006-04-19 07:42:20 51°13.682 2°52.445 -999 3.724503 34.019415 12.736221
2006-04-19 07:42:24 51°13.675 2°52.424 -999 3.725746 34.034581 12.76993
2006-04-19 07:42:30 51°13.665 2°52.394 -999 3.723985 34.019186 12.80364
2006-04-19 07:42:34 51°13.658 2°52.373 -999 3.725954 34.040891 12.80364
2006-04-19 07:42:39 51°13.649 2°52.347 -999 3.725332 34.035408 12.76993
2006-04-19 07:42:45 51°13.638 2°52.316 -999 3.725332 34.035408 12.76993
2006-04-19 07:42:49 51°13.632 2°52.296 -999 3.725746 34.037943 12.736221
2006-04-19 07:42:54 51°13.622 2°52.271 -999 3.726057 34.039423 12.702512
2006-04-19 07:43:00 51°13.611 2°52.241 -999 3.726264 34.044894 12.668802
2006-04-19 07:43:04 51°13.603 2°52.221 -999 3.725229 34.035195 12.601383
2006-04-19 07:43:10 51°13.591 2°52.192 -999 3.725954 34.044254 12.500255
2006-04-19 07:43:14 51°13.583 2°52.173 -999 3.725954 34.044254 12.500255
2006-04-19 07:43:20 51°13.57 2°52.144 -999 3.723882 34.026536 12.432836
2006-04-19 07:43:25 51°13.56 2°52.12 -999 3.726783 34.058576 12.365418
2006-04-19 07:43:30 51°13.55 2°52.096 -999 3.723157 34.022519 12.297999
2006-04-19 07:43:34 51°13.542 2°52.077 -999 3.72699 34.065734 12.264289
2006-04-19 07:43:39 51°13.532 2°52.052 -999 3.726886 34.067205 12.196871
2006-04-19 07:43:45 51°13.52 2°52.023 -999 3.726886 34.067205 12.196871
2006-04-19 07:43:49 51°13.513 2°52.003 -999 3.728751 34.087873 12.196871
2006-04-19 07:43:54 51°13.503 2°51.977 -999 3.730098 34.099056 12.095742
2006-04-19 07:43:59 51°13.494 2°51.952 -999 3.727404 34.070794 12.095742
2006-04-19 07:44:04 51°13.485 2°51.927 -999 3.728544 34.081552 12.095742
2006-04-19 07:44:09 51°13.476 2°51.902 -999 3.728855 34.087243 12.062033
2006-04-19 07:44:14 51°13.467 2°51.876 -999 3.728855 34.087243 12.062033
2006-04-19 07:44:19 51°13.458 2°51.851 -999 3.725022 34.049907 12.095742
2006-04-19 07:44:24 51°13.449 2°51.826 -999 3.728233 34.081757 12.095742
2006-04-19 07:44:30 51°13.437 2°51.796 -999 3.731341 34.115085 12.129452
2006-04-19 07:44:34 51°13.429 2°51.777 -999 3.727922 34.081962 12.129452
2006-04-19 07:44:40 51°13.417 2°51.747 -999 3.728026 34.086387 12.163161
2006-04-19 07:44:44 51°13.409 2°51.728 -999 3.728026 34.086387 12.163161
2006-04-19 07:44:50 51°13.396 2°51.7 -999 3.729891 34.107904 12.129452
2006-04-19 07:44:54 51°13.388 2°51.68 -999 3.730305 34.114654 12.163161
2006-04-19 07:45:00 51°13.375 2°51.652 -999 3.730098 34.113387 12.163161
2006-04-19 07:45:05 51°13.365 2°51.628 -999 3.727715 34.088278 12.129452
2006-04-19 07:45:10 51°13.354 2°51.605 -999 3.727819 34.089333 12.129452
2006-04-19 07:45:14 51°13.346 2°51.585 -999 3.727819 34.089333 12.129452
2006-04-19 07:45:20 51°13.334 2°51.556 -999 3.728958 34.101781 12.163161
2006-04-19 07:45:25 51°13.324 2°51.531 -999 3.729891 34.110434 12.129452
2006-04-19 07:45:30 51°13.315 2°51.506 -999 3.727508 34.086168 12.163161
2006-04-19 07:45:34 51°13.308 2°51.485 -999 3.72958 34.106425 12.129452
2006-04-19 07:45:40 51°13.3 2°51.453 -999 3.730201 34.111912 12.129452
2006-04-19 07:45:45 51°13.293 2°51.425 -999 3.730201 34.111912 12.129452
2006-04-19 07:45:50 51°13.288 2°51.398 -999 3.729373 34.100943 12.129452
2006-04-19 07:45:54 51°13.283 2°51.376 -999 3.728544 34.087448 12.129452
2006-04-19 07:45:59 51°13.278 2°51.348 -999 3.729891 34.10116 12.129452
2006-04-19 07:46:05 51°13.272 2°51.314 -999 3.72844 34.087236 12.163161
2006-04-19 07:46:10 51°13.267 2°51.286 -999 3.727819 34.083435 12.196871
2006-04-19 07:46:14 51°13.263 2°51.263 -999 3.727819 34.083435 12.196871
2006-04-19 07:46:19 51°13.257 2°51.235 -999 3.729373 34.104315 12.196871
2006-04-19 07:46:24 51°13.251 2°51.207 -999 3.729787 34.114439 12.264289
2006-04-19 07:46:30 51°13.245 2°51.174 -999 3.72699 34.09185 12.264289
2006-04-19 07:46:34 51°13.239 2°51.152 -999 3.72554 34.080447 12.264289
2006-04-19 07:46:40 51°13.232 2°51.119 -999 3.724815 34.075588 12.23058
2006-04-19 07:46:44 51°13.227 2°51.097 -999 3.724815 34.075588 12.23058
2006-04-19 07:46:49 51°13.22 2°51.07 -999 3.725436 34.086136 12.264289
2006-04-19 07:46:54 51°13.214 2°51.042 -999 3.726162 34.097743 12.23058
2006-04-19 07:46:59 51°13.207 2°51.015 -999 3.724608 34.084438 12.23058
2006-04-19 07:47:04 51°13.201 2°50.987 -999 3.726369 34.10323 12.196871
2006-04-19 07:47:10 51°13.194 2°50.954 -999 3.723779 34.076836 12.163161
2006-04-19 07:47:14 51°13.189 2°50.931 -999 3.723779 34.076836 12.163161
2006-04-19 07:47:20 51°13.183 2°50.898 -999 3.724193 34.081902 12.129452
2006-04-19 07:47:25 51°13.177 2°50.87 -999 3.727094 34.113153 12.129452
2006-04-19 07:47:30 51°13.172 2°50.842 -999 3.725126 34.095622 12.129452
2006-04-19 07:47:34 51°13.167 2°50.819 -999 3.723986 34.092445 12.129452
2006-04-19 07:47:40 51°13.16 2°50.786 -999 3.722847 34.088423 12.129452
2006-04-19 07:47:45 51°13.153 2°50.76 -999 3.722847 34.088423 12.129452
2006-04-19 07:47:49 51°13.147 2°50.738 -999 3.723365 34.10046 12.129452
2006-04-19 07:47:54 51°13.14 2°50.712 -999 3.72264 34.093908 12.129452
2006-04-19 07:47:59 51°13.132 2°50.685 -999 3.724919 34.118844 12.095742
2006-04-19 07:48:04 51°13.124 2°50.659 -999 3.724815 34.124549 12.062033
2006-04-19 07:48:10 51°13.114 2°50.628 -999 3.72409 34.121378 12.062033
2006-04-19 07:48:14 51°13.108 2°50.607 -999 3.72409 34.121378 12.062033
2006-04-19 07:48:20 51°13.099 2°50.575 -999 3.723054 34.113344 12.028324
2006-04-19 07:48:24 51°13.093 2°50.553 -999 3.723469 34.120109 12.028324
2006-04-19 07:48:30 51°13.085 2°50.521 -999 3.722329 34.112707 12.028324
2006-04-19 07:48:34 51°13.079 2°50.5 -999 3.725541 34.14633 12.028324
2006-04-19 07:48:39 51°13.073 2°50.472 -999 3.722226 34.115033 12.028324
2006-04-19 07:48:44 51°13.066 2°50.445 -999 3.722226 34.115033 12.028324
2006-04-19 07:48:49 51°13.059 2°50.418 -999 3.723987 34.135546 12.028324
2006-04-19 07:48:54 51°13.053 2°50.391 -999 3.720983 34.108264 12.028324
2006-04-19 07:48:59 51°13.046 2°50.363 -999 3.720154 34.102341 12.028324
2006-04-19 07:49:04 51°13.039 2°50.337 -999 3.721708 34.124973 12.028324
2006-04-19 07:49:10 51°13.03 2°50.304 -999 3.719429 34.107624 12.028324
2006-04-19 07:49:14 51°13.024 2°50.283 -999 3.719429 34.107624 12.028324
2006-04-19 07:49:20 51°13.015 2°50.251 -999 3.722744 34.14995 12.028324
2006-04-19 07:49:24 51°13.009 2°50.23 -999 3.720672 34.134714 12.062033
2006-04-19 07:49:30 51°12.999 2°50.198 -999 3.720569 34.13874 12.028324
2006-04-19 07:49:34 51°12.993 2°50.177 -999 3.722123 34.159706 12.028324
2006-04-19 07:49:40 51°12.984 2°50.145 -999 3.726059 34.20249 11.994614
2006-04-19 07:49:45 51°12.977 2°50.118 -999 3.726059 34.20249 11.994614
2006-04-19 07:49:50 51°12.97 2°50.091 -999 3.720673 34.149122 11.994614
2006-04-19 07:49:54 51°12.964 2°50.069 -999 3.72347 34.17941 11.994614
2006-04-19 07:49:59 51°12.957 2°50.042 -999 3.723055 34.176871 11.994614
2006-04-19 07:50:05 51°12.949 2°50.009 -999 3.724298 34.18958 11.994614
2006-04-19 07:50:10 51°12.943 2°49.982 -999 3.720983 34.153995 11.994614
2006-04-19 07:50:14 51°12.938 2°49.96 -999 3.720983 34.153995 11.994614
2006-04-19 07:50:20 51°12.93 2°49.927 -999 3.721294 34.159716 11.994614
2006-04-19 07:50:24 51°12.924 2°49.905 -999 3.724298 34.191278 11.994614
2006-04-19 07:50:30 51°12.915 2°49.873 -999 3.721501 34.165228 11.994614
2006-04-19 07:50:34 51°12.909 2°49.852 -999 3.722227 34.176886 11.994614
2006-04-19 07:50:40 51°12.898 2°49.821 -999 3.720155 34.15655 11.994614
2006-04-19 07:50:44 51°12.891 2°49.801 -999 3.720155 34.15655 11.994614
2006-04-19 07:50:50 51°12.879 2°49.771 -999 3.722434 34.1841 12.028324
2006-04-19 07:50:54 51°12.872 2°49.751 -999 3.719015 34.154232 12.062033
2006-04-19 07:51:00 51°12.86 2°49.722 -999 3.722537 34.193654 12.062033
2006-04-19 07:51:05 51°12.851 2°49.697 -999 3.724195 34.213161 12.028324
2006-04-19 07:51:10 51°12.84 2°49.672 -999 3.720776 34.178188 12.028324
2006-04-19 07:51:14 51°12.833 2°49.653 -999 3.720776 34.178188 12.028324
2006-04-19 07:51:20 51°12.821 2°49.623 -999 3.724713 34.21761 12.028324
2006-04-19 07:51:24 51°12.813 2°49.603 -999 3.719326 34.163352 12.028324
2006-04-19 07:51:30 51°12.802 2°49.573 -999 3.721812 34.188785 12.028324
2006-04-19 07:51:34 51°12.794 2°49.553 -999 3.72233 34.194084 12.028324
2006-04-19 07:51:40 51°12.783 2°49.522 -999 3.71829 34.154454 12.028324
2006-04-19 07:51:44 51°12.775 2°49.502 -999 3.71829 34.154454 12.028324
2006-04-19 07:51:50 51°12.763 2°49.473 -999 3.719844 34.172897 12.062033
2006-04-19 07:51:54 51°12.754 2°49.454 -999 3.719844 34.170349 12.028324
2006-04-19 07:51:59 51°12.743 2°49.431 -999 3.72202 34.194304 12.062033
2006-04-19 07:52:05 51°12.729 2°49.404 -999 3.72202 34.198554 12.095742
2006-04-19 07:52:10 51°12.717 2°49.381 -999 3.71684 34.150654 12.095742
2006-04-19 07:52:15 51°12.705 2°49.36 -999 3.71684 34.150654 12.095742
2006-04-19 07:52:19 51°12.695 2°49.343 -999 3.720777 34.194335 12.129452
2006-04-19 07:52:25 51°12.68 2°49.317 -999 3.722745 34.217033 12.129452
2006-04-19 07:52:30 51°12.667 2°49.297 -999 3.725128 34.243978 12.129452
2006-04-19 07:52:34 51°12.657 2°49.28 -999 3.721502 34.207711 12.163161
2006-04-19 07:52:39 51°12.644 2°49.259 -999 3.722434 34.218107 12.163161
2006-04-19 07:52:45 51°12.628 2°49.234 -999 3.722434 34.218107 12.163161
2006-04-19 07:52:49 51°12.618 2°49.218 -999 3.720673 34.199228 12.163161
2006-04-19 07:52:54 51°12.605 2°49.196 -999 3.721709 34.208981 12.163161
2006-04-19 07:52:59 51°12.592 2°49.175 -999 3.720673 34.197527 12.163161
2006-04-19 07:53:05 51°12.577 2°49.149 -999 3.718498 34.171861 12.163161
2006-04-19 07:53:10 51°12.564 2°49.128 -999 3.718498 34.171012 12.163161
2006-04-19 07:53:14 51°12.554 2°49.11 -999 3.718498 34.171012 12.163161
2006-04-19 07:53:20 51°12.54 2°49.084 -999 3.718394 34.166553 12.196871
2006-04-19 07:53:24 51°12.53 2°49.066 -999 3.723677 34.218918 12.196871
2006-04-19 07:53:30 51°12.515 2°49.04 -999 3.721398 34.194745 12.23058
2006-04-19 07:53:34 51°12.505 2°49.023 -999 3.719637 34.176724 12.264289
2006-04-19 07:53:40 51°12.49 2°48.997 -999 3.720259 34.183934 12.297999
2006-04-19 07:53:44 51°12.479 2°48.98 -999 3.720259 34.183934 12.297999
2006-04-19 07:53:50 51°12.464 2°48.955 -999 3.720051 34.183514 12.331708
2006-04-19 07:53:54 51°12.453 2°48.939 -999 3.721813 34.202386 12.331708
2006-04-19 07:54:00 51°12.438 2°48.914 -999 3.720777 34.189234 12.331708
2006-04-19 07:54:04 51°12.427 2°48.897 -999 3.719637 34.177574 12.331708
2006-04-19 07:54:10 51°12.412 2°48.871 -999 3.717876 34.158705 12.365418
2006-04-19 07:54:14 51°12.402 2°48.854 -999 3.717876 34.158705 12.365418
2006-04-19 07:54:19 51°12.39 2°48.832 -999 3.718808 34.166546 12.365418
2006-04-19 07:54:24 51°12.377 2°48.81 -999 3.721398 34.189645 12.331708
2006-04-19 07:54:29 51°12.365 2°48.788 -999 3.720984 34.183706 12.365418
2006-04-19 07:54:35 51°12.35 2°48.761 -999 3.719948 34.17056 12.331708
2006-04-19 07:54:40 51°12.338 2°48.739 -999 3.720051 34.168223 12.365418
2006-04-19 07:54:44 51°12.328 2°48.721 -999 3.720051 34.168223 12.365418
2006-04-19 07:54:50 51°12.313 2°48.694 -999 3.716218 34.127325 12.399127
2006-04-19 07:54:54 51°12.304 2°48.676 -999 3.721916 34.185597 12.399127
2006-04-19 07:55:00 51°12.289 2°48.65 -999 3.72202 34.186657 12.432836
2006-04-19 07:55:05 51°12.276 2°48.628 -999 3.719637 34.162286 12.466546
2006-04-19 07:55:09 51°12.266 2°48.61 -999 3.720984 34.175211 12.500255
2006-04-19 07:55:14 51°12.254 2°48.588 -999 3.720984 34.175211 12.500255
2006-04-19 07:55:19 51°12.242 2°48.566 -999 3.721916 34.185597 12.533965
2006-04-19 07:55:24 51°12.229 2°48.544 -999 3.720362 34.168854 12.533965
2006-04-19 07:55:30 51°12.214 2°48.518 -999 3.718601 34.150843 12.567674
2006-04-19 07:55:34 51°12.204 2°48.5 -999 3.718187 34.145756 12.601383
2006-04-19 07:55:40 51°12.189 2°48.474 -999 3.719326 34.158259 12.601383
2006-04-19 07:55:44 51°12.179 2°48.457 -999 3.719326 34.158259 12.601383
2006-04-19 07:55:50 51°12.164 2°48.431 -999 3.719637 34.161437 12.635093
2006-04-19 07:55:54 51°12.155 2°48.415 -999 3.718497 34.15148 12.668802
2006-04-19 07:56:00 51°12.143 2°48.392 -999 3.718912 34.156567 12.702512
2006-04-19 07:56:04 51°12.135 2°48.377 -999 3.717876 34.145972 12.736221
2006-04-19 07:56:10 51°12.125 2°48.356 -999 3.718808 34.15381 12.76993
2006-04-19 07:56:14 51°12.118 2°48.342 -999 3.718808 34.15381 12.76993
2006-04-19 07:56:19 51°12.111 2°48.326 -999 3.719015 34.151686 12.76993
2006-04-19 07:56:24 51°12.103 2°48.311 -999 3.718704 34.145963 12.80364
2006-04-19 07:56:29 51°12.096 2°48.296 -999 3.719222 34.150411 12.837349
2006-04-19 07:56:34 51°12.09 2°48.283 -999 3.719222 34.150411 12.904768
2006-04-19 07:56:40 51°12.082 2°48.268 -999 3.719948 34.159523 12.938477
2006-04-19 07:56:44 51°12.078 2°48.259 -999 3.719948 34.159523 12.938477
2006-04-19 07:56:49 51°12.072 2°48.249 -999 3.717047 34.131559 12.972187
2006-04-19 07:56:55 51°12.064 2°48.238 -999 3.718601 34.149146 12.972187
2006-04-19 07:57:00 51°12.058 2°48.23 -999 3.718912 34.156567 13.005896
2006-04-19 07:57:05 51°12.053 2°48.224 -999 3.720569 34.177767 13.039606
2006-04-19 07:57:10 51°12.047 2°48.218 -999 3.718808 34.162299 13.039606
2006-04-19 07:57:14 51°12.044 2°48.215 -999 3.718808 34.162299 13.039606
2006-04-19 07:57:20 51°12.039 2°48.21 -999 3.717876 34.157007 13.039606
2006-04-19 07:57:24 51°12.037 2°48.208 -999 3.719223 34.173334 13.039606
2006-04-19 07:57:30 51°12.035 2°48.206 -999 3.716426 34.147263 13.039606
2006-04-19 07:57:34 51°12.034 2°48.205 -999 3.712696 34.109957 13.005896
2006-04-19 07:57:39 51°12.034 2°48.204 -999 3.71829 34.167192 12.972187
2006-04-19 07:57:45 51°12.035 2°48.203 -999 3.71829 34.167192 12.972187
2006-04-19 07:57:50 51°12.036 2°48.201 -999 3.721398 34.197295 13.005896
2006-04-19 07:57:55 51°12.037 2°48.2 -999 3.715493 34.136026 13.005896
2006-04-19 07:58:00 51°12.038 2°48.199 -999 3.715908 34.13772 12.972187
2006-04-19 07:58:05 51°12.038 2°48.198 -999 3.716218 34.137504 12.972187
2006-04-19 07:58:10 51°12.039 2°48.197 -999 3.718187 34.157639 12.972187
2006-04-19 07:58:15 51°12.039 2°48.196 -999 3.718187 34.157639 12.972187
2006-04-19 07:58:20 51°12.04 2°48.195 -999 3.717669 34.153189 12.972187
2006-04-19 07:58:25 51°12.04 2°48.194 -999 3.717669 34.154887 12.972187
2006-04-19 07:58:30 51°12.041 2°48.192 -999 3.717772 34.155098 13.005896
2006-04-19 07:58:35 51°12.041 2°48.191 -999 3.716736 34.1445 13.039606
2006-04-19 07:58:40 51°12.042 2°48.19 -999 3.715183 34.130301 13.039606
2006-04-19 07:58:44 51°12.042 2°48.189 -999 3.715183 34.130301 13.039606
2006-04-19 07:58:49 51°12.042 2°48.187 -999 3.716322 34.14111 13.039606
2006-04-19 07:58:54 51°12.043 2°48.186 -999 3.720362 34.183294 13.107024
2006-04-19 07:59:00 51°12.043 2°48.185 -999 3.718498 34.165914 13.107024
2006-04-19 07:59:04 51°12.043 2°48.184 -999 3.718498 34.166764 13.140734
2006-04-19 07:59:09 51°12.043 2°48.182 -999 3.716011 34.140477 13.140734
2006-04-19 07:59:14 51°12.044 2°48.181 -999 3.716011 34.140477 13.140734
2006-04-19 07:59:20 51°12.044 2°48.18 -999 3.717462 34.156164 13.140734
2006-04-19 07:59:25 51°12.044 2°48.179 -999 3.716426 34.144716 13.107024
2006-04-19 07:59:30 51°12.045 2°48.177 -999 3.717047 34.151924 13.140734
2006-04-19 07:59:35 51°12.045 2°48.176 -999 3.716529 34.147474 13.174443
2006-04-19 07:59:40 51°12.045 2°48.175 -999 3.715286 34.133907 13.140734
2006-04-19 07:59:45 51°12.045 2°48.174 -999 3.715286 34.133907 13.140734
2006-04-19 07:59:50 51°12.045 2°48.173 -999 3.717565 34.159772 13.174443
2006-04-19 07:59:54 51°12.046 2°48.172 -999 3.715493 34.137724 13.174443
2006-04-19 08:00:00 51°12.046 2°48.171 -999 3.717047 34.154472 13.208153
2006-04-19 08:00:04 51°12.046 2°48.17 -999 3.716944 34.15511 13.241862
2006-04-19 08:00:10 51°12.046 2°48.169 -999 3.717151 34.15723 13.241862
2006-04-19 08:00:14 51°12.047 2°48.168 -999 3.717151 34.15723 13.241862
2006-04-19 08:00:20 51°12.047 2°48.167 -999 3.716633 34.150232 13.208153
2006-04-19 08:00:24 51°12.047 2°48.166 -999 3.716529 34.149172 13.208153
2006-04-19 08:00:30 51°12.047 2°48.165 -999 3.718601 34.172072 13.208153
2006-04-19 08:00:34 51°12.047 2°48.164 -999 3.716426 34.150659 13.241862
2006-04-19 08:00:40 51°12.048 2°48.163 -999 3.717773 34.16529 13.275571
2006-04-19 08:00:44 51°12.048 2°48.162 -999 3.717773 34.16529 13.275571
2006-04-19 08:00:50 51°12.048 2°48.161 -999 3.714872 34.135608 13.241862
2006-04-19 08:00:54 51°12.048 2°48.16 -999 3.713525 34.123526 13.275571
2006-04-19 08:00:59 51°12.048 2°48.16 -999 3.713215 34.122043 13.275571
2006-04-19 08:01:04 51°12.048 2°48.159 -999 3.713111 34.120135 13.275571
2006-04-19 08:01:09 51°12.048 2°48.158 -999 3.713629 34.125435 13.275571
2006-04-19 08:01:14 51°12.048 2°48.157 -999 3.713629 34.125435 13.275571
2006-04-19 08:01:20 51°12.048 2°48.156 -999 3.713733 34.128192 13.275571
2006-04-19 08:01:24 51°12.048 2°48.155 -999 3.714043 34.131372 13.309281
2006-04-19 08:01:30 51°12.048 2°48.154 -999 3.715494 34.147912 13.309281
2006-04-19 08:01:34 51°12.048 2°48.153 -999 3.715701 34.150033 13.34299
2006-04-19 08:01:40 51°12.048 2°48.152 -999 3.715183 34.144732 13.275571
2006-04-19 08:01:44 51°12.048 2°48.152 -999 3.715183 34.144732 13.275571
2006-04-19 08:01:50 51°12.048 2°48.151 -999 3.714768 34.140491 13.309281
2006-04-19 08:01:54 51°12.048 2°48.15 -999 3.714665 34.14028 13.34299
2006-04-19 08:02:00 51°12.048 2°48.149 -999 3.716012 34.154913 13.34299
2006-04-19 08:02:04 51°12.048 2°48.148 -999 3.716012 34.156612 13.34299
2006-04-19 08:02:10 51°12.048 2°48.147 -999 3.711661 34.111233 13.34299
2006-04-19 08:02:14 51°12.048 2°48.147 -999 3.711661 34.111233 13.34299
2006-04-19 08:02:20 51°12.048 2°48.145 -999 3.714561 34.140918 13.3767
2006-04-19 08:02:24 51°12.048 2°48.145 -999 3.714147 34.137526 13.3767
2006-04-19 08:02:30 51°12.048 2°48.144 -999 3.715079 34.14537 13.3767
2006-04-19 08:02:34 51°12.048 2°48.143 -999 3.714976 34.14431 13.3767
2006-04-19 08:02:40 51°12.048 2°48.142 -999 3.713733 34.131587 13.410409
2006-04-19 08:02:44 51°12.048 2°48.141 -999 3.713733 34.131587 13.410409
2006-04-19 08:02:50 51°12.048 2°48.14 -999 3.713422 34.126709 13.3767
2006-04-19 08:02:54 51°12.048 2°48.139 -999 3.711661 34.106992 13.410409
2006-04-19 08:03:00 51°12.048 2°48.139 -999 3.715079 34.141124 13.3767
2006-04-19 08:03:04 51°12.048 2°48.138 -999 3.714976 34.142611 13.3767
2006-04-19 08:03:09 51°12.048 2°48.137 -999 3.713111 34.125226 13.3767
2006-04-19 08:03:14 51°12.048 2°48.136 -999 3.713111 34.125226 13.3767
2006-04-19 08:03:20 51°12.048 2°48.135 -999 3.713422 34.129256 13.410409
2006-04-19 08:03:25 51°12.048 2°48.134 -999 3.715079 34.146219 13.444118
2006-04-19 08:03:29 51°12.048 2°48.133 -999 3.716012 34.156612 13.477828
2006-04-19 08:03:34 51°12.048 2°48.133 -999 3.716012 34.157461 13.444118
2006-04-19 08:03:40 51°12.048 2°48.132 -999 3.714768 34.145587 13.444118
2006-04-19 08:03:44 51°12.047 2°48.131 -999 3.714768 34.145587 13.444118
2006-04-19 08:03:50 51°12.047 2°48.13 -999 3.713525 34.132863 13.444118
2006-04-19 08:03:54 51°12.047 2°48.129 -999 3.715804 34.15704 13.444118
2006-04-19 08:04:00 51°12.047 2°48.128 -999 3.715079 34.147918 13.410409
2006-04-19 08:04:04 51°12.047 2°48.128 -999 3.713525 34.132014 13.477828
2006-04-19 08:04:10 51°12.047 2°48.126 -999 3.715079 34.148768 13.444118
2006-04-19 08:04:14 51°12.047 2°48.126 -999 3.715079 34.148768 13.444118
2006-04-19 08:04:18 51°12.047 2°48.125 -999 3.712697 34.124381 13.477828
2006-04-19 08:04:25 51°12.047 2°48.124 -999 3.712904 34.125653 13.444118
2006-04-19 08:04:29 51°12.047 2°48.123 -999 3.713836 34.135195 13.477828
2006-04-19 08:04:34 51°12.047 2°48.123 -999 3.713111 34.127773 13.444118
2006-04-19 08:04:40 51°12.047 2°48.121 -999 3.712904 34.126502 13.444118
2006-04-19 08:04:45 51°12.047 2°48.12 -999 3.712904 34.126502 13.444118
2006-04-19 08:04:50 51°12.047 2°48.12 -999 3.714354 34.142195 13.477828
2006-04-19 08:04:54 51°12.047 2°48.119 -999 3.71539 34.15025 13.477828
2006-04-19 08:05:00 51°12.047 2°48.118 -999 3.713629 34.130527 13.477828
2006-04-19 08:05:05 51°12.047 2°48.117 -999 3.71425 34.136039 13.511537
2006-04-19 08:05:10 51°12.047 2°48.116 -999 3.713836 34.13095 13.477828
2006-04-19 08:05:14 51°12.047 2°48.115 -999 3.713836 34.13095 13.477828
2006-04-19 08:05:20 51°12.047 2°48.114 -999 3.716115 34.153424 13.477828
2006-04-19 08:05:24 51°12.047 2°48.113 -999 3.715908 34.149605 13.477828
2006-04-19 08:05:28 51°12.046 2°48.113 -999 3.717773 34.168689 13.545247
2006-04-19 08:05:35 51°12.046 2°48.111 -999 3.717876 34.170599 13.545247
2006-04-19 08:05:40 51°12.046 2°48.111 -999 3.715597 34.148123 13.545247
2006-04-19 08:05:44 51°12.046 2°48.11 -999 3.715597 34.148123 13.545247
2006-04-19 08:05:50 51°12.046 2°48.109 -999 3.715286 34.145792 13.511537
2006-04-19 08:05:54 51°12.046 2°48.108 -999 3.717669 34.170178 13.511537
2006-04-19 08:06:00 51°12.046 2°48.107 -999 3.715494 34.147912 13.511537
2006-04-19 08:06:05 51°12.046 2°48.107 -999 3.715494 34.147063 13.578956
2006-04-19 08:06:09 51°12.046 2°48.106 -999 3.718498 34.17696 13.545247
2006-04-19 08:06:14 51°12.046 2°48.105 -999 3.718498 34.17696 13.545247
2006-04-19 08:06:20 51°12.046 2°48.104 -999 3.715286 34.144094 13.545247
2006-04-19 08:06:25 51°12.046 2°48.103 -999 3.714665 34.137733 13.578956
2006-04-19 08:06:30 51°12.046 2°48.103 -999 3.714354 34.134552 13.545247
2006-04-19 08:06:34 51°12.046 2°48.102 -999 3.714561 34.136673 13.545247
2006-04-19 08:06:40 51°12.046 2°48.101 -999 3.715804 34.149394 13.545247
2006-04-19 08:06:45 51°12.046 2°48.1 -999 3.715804 34.149394 13.545247
2006-04-19 08:06:50 51°12.046 2°48.099 -999 3.716633 34.157876 13.545247
2006-04-19 08:06:54 51°12.046 2°48.099 -999 3.716011 34.150665 13.646375
2006-04-19 08:06:59 51°12.046 2°48.098 -999 3.715286 34.143244 13.646375
2006-04-19 08:07:04 51°12.046 2°48.097 -999 3.717669 34.167628 13.646375
2006-04-19 08:07:10 51°12.046 2°48.096 -999 3.715286 34.143244 13.612665
2006-04-19 08:07:14 51°12.046 2°48.095 -999 3.715286 34.143244 13.612665
2006-04-19 08:07:20 51°12.046 2°48.094 -999 3.715079 34.140275 13.680084
2006-04-19 08:07:24 51°12.045 2°48.093 -999 3.716322 34.152147 13.646375
2006-04-19 08:07:30 51°12.045 2°48.093 -999 3.71539 34.142606 13.646375
2006-04-19 08:07:34 51°12.045 2°48.092 -999 3.716219 34.151936 13.612665
2006-04-19 08:07:39 51°12.045 2°48.091 -999 3.716011 34.148967 13.680084
2006-04-19 08:07:45 51°12.045 2°48.09 -999 3.716011 34.148967 13.680084
2006-04-19 08:07:49 51°12.045 2°48.089 -999 3.714665 34.135186 13.680084
2006-04-19 08:07:55 51°12.045 2°48.088 -999 3.71539 34.141757 13.612665
2006-04-19 08:08:00 51°12.045 2°48.087 -999 3.716737 34.155538 13.680084
2006-04-19 08:08:04 51°12.045 2°48.087 -999 3.714043 34.127977 13.680084
2006-04-19 08:08:09 51°12.045 2°48.086 -999 3.716426 34.153207 13.713794
2006-04-19 08:08:14 51°12.045 2°48.085 -999 3.716426 34.153207 13.713794
2006-04-19 08:08:20 51°12.045 2°48.084 -999 3.715183 34.140486 13.680084
2006-04-19 08:08:24 51°12.045 2°48.083 -999 3.715804 34.146847 13.680084
2006-04-19 08:08:30 51°12.045 2°48.082 -999 3.71425 34.131795 13.646375
2006-04-19 08:08:34 51°12.045 2°48.081 -999 3.715183 34.142184 13.747503
2006-04-19 08:08:40 51°12.045 2°48.08 -999 3.716322 34.154695 13.747503
2006-04-19 08:08:45 51°12.045 2°48.08 -999 3.716322 34.154695 13.747503
2006-04-19 08:08:50 51°12.045 2°48.079 -999 3.719326 34.184593 13.713794
2006-04-19 08:08:54 51°12.045 2°48.078 -999 3.716633 34.156177 13.747503
2006-04-19 08:09:00 51°12.045 2°48.077 -999 3.716115 34.151726 13.747503
2006-04-19 08:09:04 51°12.045 2°48.076 -999 3.718083 34.17102 13.747503
2006-04-19 08:09:10 51°12.045 2°48.075 -999 3.716219 34.151087 13.781212
2006-04-19 08:09:14 51°12.045 2°48.075 -999 3.716219 34.151087 13.781212
2006-04-19 08:09:20 51°12.045 2°48.074 -999 3.71539 34.140908 13.747503
2006-04-19 08:09:24 51°12.044 2°48.073 -999 3.716219 34.149389 13.814922
2006-04-19 08:09:30 51°12.044 2°48.072 -999 3.718498 34.172711 13.781212
2006-04-19 08:09:34 51°12.044 2°48.071 -999 3.715286 34.13815 13.747503
2006-04-19 08:09:40 51°12.044 2°48.071 -999 3.716529 34.15087 13.781212
2006-04-19 08:09:44 51°12.044 2°48.07 -999 3.716529 34.15087 13.781212
2006-04-19 08:09:50 51°12.044 2°48.069 -999 3.716115 34.14663 13.747503
2006-04-19 08:09:54 51°12.044 2°48.068 -999 3.717047 34.155321 13.781212
2006-04-19 08:10:00 51°12.044 2°48.067 -999 3.717047 34.155321 13.747503
2006-04-19 08:10:04 51°12.044 2°48.066 -999 3.714872 34.133911 13.747503
2006-04-19 08:10:10 51°12.043 2°48.066 -999 3.716737 34.15384 13.781212
2006-04-19 08:10:14 51°12.043 2°48.065 -999 3.716737 34.15384 13.781212
2006-04-19 08:10:20 51°12.043 2°48.064 -999 3.716011 34.146419 13.848631
2006-04-19 08:10:24 51°12.043 2°48.064 -999 3.71798 34.16741 13.814922
2006-04-19 08:10:29 51°12.042 2°48.065 -999 3.718912 34.176952 13.814922
2006-04-19 08:10:34 51°12.04 2°48.066 -999 3.715597 34.143028 13.814922
2006-04-19 08:10:40 51°12.038 2°48.067 -999 3.717047 34.157869 13.814922
2006-04-19 08:10:44 51°12.036 2°48.068 -999 3.717047 34.157869 13.814922
2006-04-19 08:10:50 51°12.033 2°48.069 -999 3.717669 34.165079 13.882341
2006-04-19 08:10:54 51°12.03 2°48.069 -999 3.716322 34.14875 13.781212
2006-04-19 08:11:00 51°12.026 2°48.071 -999 3.715597 34.142179 13.814922
2006-04-19 08:11:05 51°12.023 2°48.071 -999 3.716322 34.149599 13.814922
2006-04-19 08:11:10 51°12.018 2°48.07 -999 3.715286 34.13815 13.848631
2006-04-19 08:11:14 51°12.015 2°48.07 -999 3.715286 34.13815 13.848631
2006-04-19 08:11:19 51°12.011 2°48.069 -999 3.717151 34.15808 13.848631
2006-04-19 08:11:25 51°12.005 2°48.067 -999 3.715183 34.135393 13.848631
2006-04-19 08:11:30 51°11.999 2°48.063 -999 3.715701 34.138146 13.814922
2006-04-19 08:11:34 51°11.995 2°48.06 -999 3.716011 34.140477 13.814922
2006-04-19 08:11:40 51°11.988 2°48.053 -999 3.716944 34.150015 13.781212
2006-04-19 08:11:44 51°11.984 2°48.047 -999 3.716944 34.150015 13.781212
2006-04-19 08:11:50 51°11.978 2°48.035 -999 3.714457 34.122883 13.747503
2006-04-19 08:11:54 51°11.974 2°48.027 -999 3.716115 34.138142 13.747503
2006-04-19 08:12:00 51°11.97 2°48.013 -999 3.7157 34.129661 13.747503
2006-04-19 08:12:04 51°11.968 2°48.003 -999 3.716115 34.133051 13.747503
2006-04-19 08:12:09 51°11.966 2°47.99 -999 3.71539 34.124786 13.713794
2006-04-19 08:12:14 51°11.966 2°47.977 -999 3.71539 34.124786 13.713794
2006-04-19 08:12:20 51°11.967 2°47.962 -999 3.716736 34.137711 13.612665
2006-04-19 08:12:24 51°11.968 2°47.953 -999 3.71539 34.12309 13.578956
2006-04-19 08:12:30 51°11.97 2°47.94 -999 3.717772 34.14661 13.545247
2006-04-19 08:12:34 51°11.972 2°47.932 -999 3.714872 34.112706 13.477828
2006-04-19 08:12:40 51°11.975 2°47.921 -999 3.714043 34.098301 13.410409
2006-04-19 08:12:45 51°11.978 2°47.913 -999 3.714043 34.098301 13.410409
2006-04-19 08:12:50 51°11.981 2°47.906 -999 3.714664 34.108045 13.410409
2006-04-19 08:12:54 51°11.984 2°47.9 -999 3.713939 34.106563 13.410409
2006-04-19 08:13:00 51°11.988 2°47.893 -999 3.714354 34.115887 13.410409
2006-04-19 08:13:04 51°11.992 2°47.888 -999 3.715701 34.132206 13.410409
2006-04-19 08:13:10 51°11.997 2°47.882 -999 3.713525 34.110802 13.444118
2006-04-19 08:13:14 51°12 2°47.879 -999 3.713525 34.110802 13.444118
2006-04-19 08:13:20 51°12.006 2°47.874 -999 3.715183 34.125211 13.410409
2006-04-19 08:13:25 51°12.011 2°47.872 -999 3.716218 34.136656 13.410409
2006-04-19 08:13:30 51°12.016 2°47.871 -999 3.715286 34.127967 13.477828
2006-04-19 08:13:34 51°12.02 2°47.87 -999 3.718187 34.159337 13.545247
2006-04-19 08:13:40 51°12.027 2°47.87 -999 3.714561 34.123943 13.612665
2006-04-19 08:13:45 51°12.032 2°47.871 -999 3.714561 34.123943 13.612665
2006-04-19 08:13:50 51°12.038 2°47.872 -999 3.715597 34.135389 13.646375
2006-04-19 08:13:54 51°12.042 2°47.873 -999 3.713732 34.117162 13.680084
2006-04-19 08:13:59 51°12.048 2°47.875 -999 3.714147 34.123946 13.612665
2006-04-19 08:14:05 51°12.055 2°47.877 -999 3.716115 34.14663 13.578956
2006-04-19 08:14:10 51°12.062 2°47.879 -999 3.71425 34.131795 13.545247
2006-04-19 08:14:15 51°12.068 2°47.881 -999 3.71425 34.131795 13.545247
2006-04-19 08:14:19 51°12.073 2°47.883 -999 3.713836 34.130101 13.578956
2006-04-19 08:14:24 51°12.079 2°47.885 -999 3.714561 34.137522 13.511537
2006-04-19 08:14:30 51°12.087 2°47.887 -999 3.713733 34.12989 13.511537
2006-04-19 08:14:34 51°12.093 2°47.889 -999 3.715494 34.148762 13.477828
2006-04-19 08:14:40 51°12.1 2°47.892 -999 3.712697 34.120137 13.477828
2006-04-19 08:14:45 51°12.107 2°47.895 -999 3.712697 34.120137 13.477828
2006-04-19 08:14:50 51°12.112 2°47.897 -999 3.716219 34.156184 13.444118
2006-04-19 08:14:54 51°12.117 2°47.899 -999 3.713111 34.124378 13.410409
2006-04-19 08:15:00 51°12.124 2°47.903 -999 3.713422 34.128407 13.3767
2006-04-19 08:15:04 51°12.128 2°47.906 -999 3.714147 34.134979 13.3767
2006-04-19 08:15:10 51°12.135 2°47.91 -999 3.713836 34.132648 13.34299
2006-04-19 08:15:14 51°12.139 2°47.913 -999 3.713836 34.132648 13.34299
2006-04-19 08:15:20 51°12.144 2°47.918 -999 3.712386 34.118654 13.34299
2006-04-19 08:15:24 51°12.148 2°47.921 -999 3.714458 34.139858 13.34299
2006-04-19 08:15:30 51°12.153 2°47.927 -999 3.714251 34.137738 13.275571
2006-04-19 08:15:34 51°12.157 2°47.931 -999 3.715701 34.153431 13.275571
2006-04-19 08:15:40 51°12.162 2°47.937 -999 3.714561 34.144315 13.275571
2006-04-19 08:15:45 51°12.165 2°47.942 -999 3.714561 34.144315 13.275571
2006-04-19 08:15:50 51°12.169 2°47.948 -999 3.715183 34.153226 13.275571
2006-04-19 08:15:55 51°12.172 2°47.953 -999 3.715804 34.160439 13.275571
2006-04-19 08:16:00 51°12.175 2°47.959 -999 3.714561 34.146864 13.275571
2006-04-19 08:16:04 51°12.178 2°47.964 -999 3.7128 34.127988 13.275571
2006-04-19 08:16:10 51°12.182 2°47.971 -999 3.715494 34.156408 13.275571
2006-04-19 08:16:14 51°12.184 2°47.975 -999 3.715494 34.156408 13.275571
2006-04-19 08:16:20 51°12.187 2°47.982 -999 3.713836 34.14029 13.241862
2006-04-19 08:16:25 51°12.191 2°47.988 -999 3.714147 34.14602 13.275571
2006-04-19 08:16:30 51°12.194 2°47.994 -999 3.713215 34.139024 13.275571
2006-04-19 08:16:34 51°12.196 2°47.998 -999 3.714147 34.150269 13.275571
2006-04-19 08:16:39 51°12.2 2°48.003 -999 3.713629 34.145815 13.241862
2006-04-19 08:16:45 51°12.204 2°48.009 -999 3.713629 34.145815 13.241862
2006-04-19 08:16:50 51°12.207 2°48.014 -999 3.713008 34.140301 13.275571
2006-04-19 08:16:54 51°12.21 2°48.017 -999 3.713318 34.145183 13.275571
2006-04-19 08:17:00 51°12.214 2°48.023 -999 3.713318 34.145183 13.241862
2006-04-19 08:17:04 51°12.217 2°48.026 -999 3.713526 34.148154 13.275571
2006-04-19 08:17:10 51°12.22 2°48.032 -999 3.713629 34.148365 13.275571
2006-04-19 08:17:14 51°12.223 2°48.036 -999 3.713629 34.148365 13.275571
2006-04-19 08:17:20 51°12.227 2°48.042 -999 3.713733 34.150275 13.241862
2006-04-19 08:17:24 51°12.23 2°48.046 -999 3.714354 34.15409 13.241862
2006-04-19 08:17:30 51°12.234 2°48.052 -999 3.714458 34.152601 13.241862
2006-04-19 08:17:34 51°12.236 2°48.057 -999 3.712179 34.12757 13.241862
2006-04-19 08:17:40 51°12.239 2°48.063 -999 3.71394 34.143899 13.208153
2006-04-19 08:17:45 51°12.242 2°48.069 -999 3.71394 34.143899 13.208153
2006-04-19 08:17:50 51°12.245 2°48.075 -999 3.715597 34.159168 13.241862
2006-04-19 08:17:54 51°12.247 2°48.079 -999 3.713318 34.13329 13.208153
2006-04-19 08:18:00 51°12.25 2°48.086 -999 3.715494 34.153859 13.208153
2006-04-19 08:18:04 51°12.252 2°48.09 -999 3.71394 34.138803 13.208153
2006-04-19 08:18:10 51°12.255 2°48.097 -999 3.713733 34.135833 13.241862
2006-04-19 08:18:14 51°12.257 2°48.102 -999 3.713733 34.135833 13.241862
2006-04-19 08:18:19 51°12.26 2°48.108 -999 3.713215 34.130531 13.208153
2006-04-19 08:18:24 51°12.262 2°48.114 -999 3.712697 34.123532 13.208153
2006-04-19 08:18:30 51°12.266 2°48.121 -999 3.711661 34.112082 13.241862
2006-04-19 08:18:34 51°12.268 2°48.125 -999 3.714251 34.137738 13.241862
2006-04-19 08:18:40 51°12.271 2°48.132 -999 3.713422 34.129256 13.241862
2006-04-19 08:18:44 51°12.273 2°48.137 -999 3.713422 34.129256 13.241862
2006-04-19 08:18:50 51°12.276 2°48.144 -999 3.713629 34.12883 13.241862
2006-04-19 08:18:54 51°12.278 2°48.149 -999 3.712904 34.122257 13.241862
2006-04-19 08:19:00 51°12.281 2°48.156 -999 3.713422 34.129256 13.241862
2006-04-19 08:19:04 51°12.283 2°48.161 -999 3.712593 34.121623 13.241862
2006-04-19 08:19:10 51°12.286 2°48.168 -999 3.714251 34.138587 13.241862
2006-04-19 08:19:14 51°12.288 2°48.172 -999 3.714251 34.138587 13.241862
2006-04-19 08:19:20 51°12.291 2°48.179 -999 3.712593 34.120775 13.241862
2006-04-19 08:19:24 51°12.293 2°48.184 -999 3.713318 34.127347 13.275571
2006-04-19 08:19:29 51°12.296 2°48.19 -999 3.715804 34.151943 13.241862
2006-04-19 08:19:35 51°12.299 2°48.197 -999 3.714872 34.14325 13.241862
2006-04-19 08:19:40 51°12.301 2°48.202 -999 3.712904 34.123106 13.208153
2006-04-19 08:19:44 51°12.303 2°48.207 -999 3.712904 34.123106 13.208153
2006-04-19 08:19:50 51°12.307 2°48.213 -999 3.712386 34.117806 13.241862
2006-04-19 08:19:54 51°12.309 2°48.218 -999 3.713733 34.130739 13.241862
2006-04-19 08:20:00 51°12.312 2°48.224 -999 3.713215 34.127135 13.241862
2006-04-19 08:20:05 51°12.315 2°48.23 -999 3.714043 34.136466 13.241862
2006-04-19 08:20:09 51°12.317 2°48.234 -999 3.712282 34.118443 13.208153
2006-04-19 08:20:14 51°12.32 2°48.24 -999 3.712282 34.118443 13.208153
2006-04-19 08:20:20 51°12.324 2°48.246 -999 3.711868 34.114202 13.241862
2006-04-19 08:20:25 51°12.327 2°48.252 -999 3.714458 34.140707 13.208153
2006-04-19 08:20:30 51°12.33 2°48.257 -999 3.715079 34.147918 13.208153
2006-04-19 08:20:34 51°12.332 2°48.261 -999 3.713525 34.132014 13.241862
2006-04-19 08:20:40 51°12.335 2°48.267 -999 3.71539 34.151099 13.241862
2006-04-19 08:20:45 51°12.338 2°48.273 -999 3.71539 34.151099 13.241862
2006-04-19 08:20:50 51°12.341 2°48.278 -999 3.714147 34.137526 13.208153
2006-04-19 08:20:54 51°12.344 2°48.282 -999 3.714147 34.139225 13.241862
2006-04-19 08:20:59 51°12.347 2°48.287 -999 3.712904 34.126502 13.241862
2006-04-19 08:21:05 51°12.35 2°48.294 -999 3.713007 34.125015 13.208153
2006-04-19 08:21:10 51°12.353 2°48.299 -999 3.712075 34.115474 13.208153
2006-04-19 08:21:14 51°12.355 2°48.304 -999 3.712075 34.115474 13.208153
2006-04-19 08:21:20 51°12.359 2°48.31 -999 3.713215 34.127135 13.241862
2006-04-19 08:21:25 51°12.361 2°48.315 -999 3.714665 34.141978 13.208153
2006-04-19 08:21:29 51°12.364 2°48.32 -999 3.714043 34.134768 13.241862
2006-04-19 08:21:35 51°12.367 2°48.326 -999 3.713422 34.129256 13.208153
2006-04-19 08:21:40 51°12.37 2°48.332 -999 3.713215 34.126287 13.174443
2006-04-19 08:21:44 51°12.372 2°48.336 -999 3.713215 34.126287 13.174443
2006-04-19 08:21:49 51°12.375 2°48.342 -999 3.712386 34.117806 13.174443
2006-04-19 08:21:54 51°12.377 2°48.348 -999 3.713836 34.134346 13.208153
2006-04-19 08:22:00 51°12.38 2°48.354 -999 3.713422 34.130954 13.208153
2006-04-19 08:22:04 51°12.382 2°48.359 -999 3.714872 34.146647 13.208153
2006-04-19 08:22:10 51°12.385 2°48.366 -999 3.712904 34.126502 13.208153
2006-04-19 08:22:14 51°12.387 2°48.37 -999 3.712904 34.126502 13.208153
2006-04-19 08:22:20 51°12.39 2°48.377 -999 3.714043 34.136466 13.208153
2006-04-19 08:22:25 51°12.392 2°48.383 -999 3.712697 34.122683 13.208153
2006-04-19 08:22:30 51°12.394 2°48.389 -999 3.717565 34.170817 13.241862
2006-04-19 08:22:34 51°12.396 2°48.394 -999 3.72057 34.202421 13.241862
2006-04-19 08:22:39 51°12.399 2°48.4 -999 3.715079 34.147918 13.241862
2006-04-19 08:22:44 51°12.401 2°48.406 -999 3.715079 34.147918 13.241862
2006-04-19 08:22:50 51°12.404 2°48.413 -999 3.715908 34.157251 13.275571
2006-04-19 08:22:54 51°12.405 2°48.418 -999 3.716944 34.167855 13.241862
2006-04-19 08:23:00 51°12.408 2°48.425 -999 3.713215 34.128833 13.275571
2006-04-19 08:23:05 51°12.41 2°48.431 -999 3.713422 34.131803 13.241862
2006-04-19 08:23:09 51°12.412 2°48.436 -999 3.713836 34.136893 13.275571
2006-04-19 08:23:14 51°12.414 2°48.442 -999 3.713836 34.136893 13.275571
2006-04-19 08:23:20 51°12.416 2°48.449 -999 3.71539 34.151949 13.241862
2006-04-19 08:23:24 51°12.418 2°48.453 -999 3.714458 34.140707 13.275571
2006-04-19 08:23:30 51°12.421 2°48.461 -999 3.717047 34.167215 13.241862
2006-04-19 08:23:35 51°12.423 2°48.467 -999 3.714872 34.144948 13.275571
2006-04-19 08:23:38 51°12.424 2°48.47 -999 3.718498 34.182061 13.275571
2006-04-19 08:23:44 51°12.427 2°48.477 -999 3.718498 34.182061 13.275571
2006-04-19 08:23:49 51°12.429 2°48.483 -999 3.713836 34.131799 13.275571
2006-04-19 08:23:54 51°12.432 2°48.489 -999 3.716322 34.156394 13.275571
2006-04-19 08:24:00 51°12.434 2°48.496 -999 3.71394 34.131161 13.275571
2006-04-19 08:24:04 51°12.436 2°48.5 -999 3.713111 34.120135 13.275571
2006-04-19 08:24:10 51°12.439 2°48.507 -999 3.71539 34.142606 13.309281
2006-04-19 08:24:14 51°12.441 2°48.512 -999 3.71539 34.142606 13.309281
2006-04-19 08:24:20 51°12.444 2°48.519 -999 3.714976 34.136668 13.275571
2006-04-19 08:24:24 51°12.446 2°48.523 -999 3.715493 34.138573 13.275571
2006-04-19 08:24:30 51°12.449 2°48.53 -999 3.71539 34.137513 13.275571
2006-04-19 08:24:34 51°12.451 2°48.534 -999 3.715286 34.137302 13.275571
2006-04-19 08:24:40 51°12.454 2°48.541 -999 3.714872 34.132213 13.275571
2006-04-19 08:24:44 51°12.456 2°48.545 -999 3.714872 34.132213 13.275571
2006-04-19 08:24:49 51°12.458 2°48.55 -999 3.716011 34.143023 13.275571
2006-04-19 08:24:54 51°12.461 2°48.556 -999 3.714768 34.131153 13.275571
2006-04-19 08:24:59 51°12.464 2°48.561 -999 3.713007 34.113136 13.309281
2006-04-19 08:25:04 51°12.466 2°48.567 -999 3.712904 34.112925 13.309281
2006-04-19 08:25:10 51°12.469 2°48.573 -999 3.713732 34.122252 13.309281
2006-04-19 08:25:14 51°12.471 2°48.577 -999 3.713732 34.122252 13.309281
2006-04-19 08:25:19 51°12.474 2°48.582 -999 3.71425 34.129248 13.309281
2006-04-19 08:25:24 51°12.477 2°48.588 -999 3.71425 34.130097 13.309281
2006-04-19 08:25:30 51°12.48 2°48.594 -999 3.713215 34.121195 13.34299
2006-04-19 08:25:34 51°12.482 2°48.598 -999 3.713422 34.123315 13.309281
2006-04-19 08:25:40 51°12.486 2°48.605 -999 3.715183 34.141335 13.309281
2006-04-19 08:25:44 51°12.488 2°48.609 -999 3.715183 34.141335 13.309281
2006-04-19 08:25:50 51°12.491 2°48.615 -999 3.713836 34.127555 13.309281
2006-04-19 08:25:54 51°12.493 2°48.619 -999 3.715079 34.141973 13.309281
2006-04-19 08:26:00 51°12.497 2°48.626 -999 3.717876 34.170599 13.34299
2006-04-19 08:26:05 51°12.5 2°48.631 -999 3.71798 34.172509 13.34299
2006-04-19 08:26:10 51°12.502 2°48.637 -999 3.719534 34.187564 13.309281
2006-04-19 08:26:15 51°12.505 2°48.642 -999 3.719534 34.187564 13.309281
2006-04-19 08:26:20 51°12.507 2°48.648 -999 3.717462 34.164658 13.34299
2006-04-19 08:26:24 51°12.51 2°48.652 -999 3.717255 34.160839 13.309281
2006-04-19 08:26:30 51°12.513 2°48.658 -999 3.716322 34.149599 13.309281
2006-04-19 08:26:35 51°12.515 2°48.664 -999 3.717565 34.159772 13.309281
2006-04-19 08:26:40 51°12.518 2°48.669 -999 3.721295 34.197085 13.34299
2006-04-19 08:26:44 51°12.52 2°48.674 -999 3.721295 34.197085 13.34299
2006-04-19 08:26:50 51°12.523 2°48.681 -999 3.717669 34.159133 13.309281
2006-04-19 08:26:55 51°12.526 2°48.686 -999 3.719119 34.173124 13.309281
2006-04-19 08:26:59 51°12.528 2°48.691 -999 3.718394 34.165704 13.34299
2006-04-19 08:27:05 51°12.531 2°48.697 -999 3.717047 34.151924 13.34299
2006-04-19 08:27:09 51°12.533 2°48.702 -999 3.71829 34.164644 13.34299
2006-04-19 08:27:14 51°12.535 2°48.708 -999 3.71829 34.164644 13.34299
2006-04-19 08:27:20 51°12.538 2°48.714 -999 3.718498 34.166764 13.34299
2006-04-19 08:27:24 51°12.54 2°48.719 -999 3.719637 34.177574 13.34299
2006-04-19 08:27:30 51°12.543 2°48.725 -999 3.717876 34.157856 13.34299
2006-04-19 08:27:34 51°12.545 2°48.73 -999 3.716736 34.145349 13.309281
2006-04-19 08:27:40 51°12.548 2°48.737 -999 3.719015 34.167816 13.34299
2006-04-19 08:27:45 51°12.551 2°48.743 -999 3.719015 34.167816 13.34299
2006-04-19 08:27:50 51°12.553 2°48.749 -999 3.723781 34.215725 13.309281
2006-04-19 08:27:54 51°12.555 2°48.753 -999 3.719223 34.167388 13.34299
2006-04-19 08:28:00 51°12.558 2°48.76 -999 3.71829 34.157001 13.34299
2006-04-19 08:28:04 51°12.56 2°48.765 -999 3.718187 34.155941 13.34299
2006-04-19 08:28:10 51°12.563 2°48.771 -999 3.717876 34.151913 13.34299
2006-04-19 08:28:14 51°12.565 2°48.776 -999 3.717876 34.151913 13.34299
2006-04-19 08:28:19 51°12.567 2°48.782 -999 3.717669 34.148945 13.34299
2006-04-19 08:28:24 51°12.57 2°48.788 -999 3.718083 34.153183 13.34299
2006-04-19 08:28:29 51°12.573 2°48.793 -999 3.720776 34.180736 13.309281
2006-04-19 08:28:34 51°12.575 2°48.799 -999 3.717047 34.141738 13.309281
2006-04-19 08:28:40 51°12.578 2°48.806 -999 3.718497 34.154875 13.34299
2006-04-19 08:28:44 51°12.58 2°48.81 -999 3.718497 34.154875 13.34299
2006-04-19 08:28:49 51°12.582 2°48.816 -999 3.717151 34.140253 13.309281
2006-04-19 08:28:54 51°12.585 2°48.821 -999 3.71829 34.15021 13.34299
2006-04-19 08:29:00 51°12.588 2°48.828 -999 3.717876 34.145124 13.34299
2006-04-19 08:29:04 51°12.589 2°48.833 -999 3.717254 34.138767 13.34299
2006-04-19 08:29:09 51°12.592 2°48.838 -999 3.718912 34.15487 13.309281
2006-04-19 08:29:14 51°12.594 2°48.844 -999 3.718912 34.15487 13.309281
2006-04-19 08:29:20 51°12.596 2°48.85 -999 3.717979 34.144486 13.34299
2006-04-19 08:29:24 51°12.598 2°48.855 -999 3.716943 34.133892 13.309281
2006-04-19 08:29:30 51°12.601 2°48.861 -999 3.717565 34.138552 13.309281
2006-04-19 08:29:34 51°12.603 2°48.866 -999 3.720776 34.169696 13.309281
2006-04-19 08:29:40 51°12.606 2°48.873 -999 3.721501 34.175414 13.309281
2006-04-19 08:29:45 51°12.608 2°48.878 -999 3.721501 34.175414 13.309281
2006-04-19 08:29:50 51°12.611 2°48.884 -999 3.71974 34.154859 13.275571
2006-04-19 08:29:55 51°12.613 2°48.89 -999 3.721501 34.173716 13.275571
2006-04-19 08:30:00 51°12.616 2°48.895 -999 3.719844 34.158464 13.275571
2006-04-19 08:30:04 51°12.618 2°48.9 -999 3.717772 34.139822 13.275571
2006-04-19 08:30:10 51°12.621 2°48.906 -999 3.719015 34.153383 13.309281
2006-04-19 08:30:14 51°12.622 2°48.911 -999 3.719015 34.153383 13.309281
2006-04-19 08:30:20 51°12.626 2°48.918 -999 3.723263 34.195974 13.309281
2006-04-19 08:30:25 51°12.628 2°48.924 -999 3.717772 34.138974 13.309281
2006-04-19 08:30:29 51°12.63 2°48.928 -999 3.717358 34.133889 13.275571
2006-04-19 08:30:34 51°12.632 2°48.934 -999 3.721709 34.177533 13.275571
2006-04-19 08:30:40 51°12.636 2°48.941 -999 3.717254 34.131134 13.275571
2006-04-19 08:30:44 51°12.638 2°48.945 -999 3.717254 34.131134 13.275571
2006-04-19 08:30:50 51°12.641 2°48.952 -999 3.721294 34.172446 13.275571
2006-04-19 08:30:54 51°12.642 2°48.956 -999 3.718601 34.145752 13.275571
2006-04-19 08:31:00 51°12.646 2°48.963 -999 3.717876 34.138337 13.275571
2006-04-19 08:31:05 51°12.648 2°48.969 -999 3.717979 34.1377 13.275571
2006-04-19 08:31:10 51°12.651 2°48.974 -999 3.717876 34.136641 13.241862
2006-04-19 08:31:14 51°12.653 2°48.979 -999 3.717876 34.136641 13.241862
2006-04-19 08:31:20 51°12.656 2°48.985 -999 3.717876 34.136641 13.275571
2006-04-19 08:31:24 51°12.658 2°48.989 -999 3.717772 34.135582 13.241862
2006-04-19 08:31:29 51°12.661 2°48.995 -999 3.72088 34.16736 13.241862
2006-04-19 08:31:34 51°12.663 2°49 -999 3.718808 34.147022 13.241862
2006-04-19 08:31:39 51°12.666 2°49.006 -999 3.718394 34.142785 13.241862
2006-04-19 08:31:44 51°12.668 2°49.011 -999 3.718394 34.142785 13.241862
2006-04-19 08:31:50 51°12.671 2°49.018 -999 3.720776 34.1663 13.208153
2006-04-19 08:31:54 51°12.673 2°49.022 -999 3.718912 34.148081 13.208153
2006-04-19 08:31:59 51°12.675 2°49.028 -999 3.717876 34.137489 13.208153
2006-04-19 08:32:05 51°12.678 2°49.035 -999 3.721605 34.175624 13.241862
2006-04-19 08:32:10 51°12.68 2°49.04 -999 3.71974 34.155707 13.208153
2006-04-19 08:32:15 51°12.683 2°49.046 -999 3.71974 34.155707 13.208153
2006-04-19 08:32:19 51°12.685 2°49.05 -999 3.719844 34.155918 13.208153
2006-04-19 08:32:24 51°12.687 2°49.056 -999 3.720466 34.162274 13.174443
2006-04-19 08:32:30 51°12.69 2°49.063 -999 3.720155 34.160793 13.174443
2006-04-19 08:32:34 51°12.692 2°49.067 -999 3.719015 34.149989 13.174443
2006-04-19 08:32:40 51°12.695 2°49.074 -999 3.72088 34.169057 13.174443
2006-04-19 08:32:44 51°12.697 2°49.078 -999 3.72088 34.169057 13.174443
2006-04-19 08:32:50 51°12.701 2°49.085 -999 3.717565 34.136007 13.174443
2006-04-19 08:32:54 51°12.703 2°49.089 -999 3.718704 34.145963 13.174443
2006-04-19 08:33:00 51°12.705 2°49.097 -999 3.718601 34.144055 13.140734
2006-04-19 08:33:05 51°12.708 2°49.102 -999 3.720258 34.160155 13.174443
2006-04-19 08:33:10 51°12.71 2°49.108 -999 3.718497 34.142148 13.140734
2006-04-19 08:33:14 51°12.712 2°49.112 -999 3.718497 34.142148 13.140734
2006-04-19 08:33:20 51°12.715 2°49.119 -999 3.721605 34.173077 13.140734
2006-04-19 08:33:24 51°12.717 2°49.123 -999 3.720983 34.165873 13.140734
2006-04-19 08:33:30 51°12.72 2°49.13 -999 3.719015 34.145747 13.140734
2006-04-19 08:33:34 51°12.721 2°49.135 -999 3.718186 34.135578 13.140734
2006-04-19 08:33:40 51°12.724 2°49.142 -999 3.718497 34.139604 13.140734
2006-04-19 08:33:45 51°12.727 2°49.147 -999 3.718497 34.139604 13.140734
2006-04-19 08:33:50 51°12.729 2°49.153 -999 3.719844 34.154221 13.140734
2006-04-19 08:33:54 51°12.731 2°49.158 -999 3.719222 34.147018 13.140734
2006-04-19 08:34:00 51°12.734 2°49.165 -999 3.71829 34.137485 13.107024
2006-04-19 08:34:04 51°12.736 2°49.169 -999 3.720362 34.158669 13.107024
2006-04-19 08:34:10 51°12.739 2°49.176 -999 3.719119 34.14511 13.107024
2006-04-19 08:34:14 51°12.741 2°49.181 -999 3.719119 34.14511 13.107024
2006-04-19 08:34:20 51°12.744 2°49.188 -999 3.718808 34.141933 13.107024
2006-04-19 08:34:25 51°12.746 2°49.194 -999 3.719844 34.152524 13.107024
2006-04-19 08:34:30 51°12.748 2°49.199 -999 3.719533 34.149347 13.107024
2006-04-19 08:34:34 51°12.75 2°49.204 -999 3.71829 34.13579 13.073315
2006-04-19 08:34:40 51°12.753 2°49.211 -999 3.719222 34.144473 13.073315
2006-04-19 08:34:44 51°12.755 2°49.216 -999 3.719222 34.144473 13.073315
2006-04-19 08:34:50 51°12.758 2°49.223 -999 3.719637 34.147861 13.073315
2006-04-19 08:34:54 51°12.76 2°49.227 -999 3.719015 34.143203 13.107024
2006-04-19 08:35:00 51°12.763 2°49.234 -999 3.717772 34.131342 13.107024
2006-04-19 08:35:05 51°12.766 2°49.24 -999 3.717876 34.133249 13.073315
2006-04-19 08:35:10 51°12.768 2°49.246 -999 3.71829 34.137485 13.073315
2006-04-19 08:35:15 51°12.771 2°49.252 -999 3.71829 34.137485 13.073315
2006-04-19 08:35:20 51°12.773 2°49.257 -999 3.722019 34.175617 13.073315
2006-04-19 08:35:25 51°12.775 2°49.263 -999 3.718704 34.141722 13.073315
2006-04-19 08:35:29 51°12.777 2°49.268 -999 3.718394 34.137697 13.073315
2006-04-19 08:35:34 51°12.78 2°49.273 -999 3.71829 34.136637 13.073315
2006-04-19 08:35:40 51°12.783 2°49.28 -999 3.719844 34.151676 13.039606
2006-04-19 08:35:45 51°12.785 2°49.286 -999 3.719844 34.151676 13.039606
2006-04-19 08:35:49 51°12.787 2°49.29 -999 3.71829 34.13579 13.073315
2006-04-19 08:35:54 51°12.79 2°49.296 -999 3.717876 34.132401 13.039606
2006-04-19 08:36:00 51°12.792 2°49.303 -999 3.718808 34.141933 13.039606
2006-04-19 08:36:05 51°12.795 2°49.309 -999 3.71943 34.148288 13.039606
2006-04-19 08:36:10 51°12.798 2°49.314 -999 3.718394 34.136001 13.039606
2006-04-19 08:36:14 51°12.8 2°49.319 -999 3.718394 34.136001 13.039606
2006-04-19 08:36:20 51°12.803 2°49.326 -999 3.718704 34.13833 13.039606
2006-04-19 08:36:25 51°12.805 2°49.331 -999 3.715597 34.107409 13.039606
2006-04-19 08:36:30 51°12.808 2°49.337 -999 3.717668 34.130283 13.073315
2006-04-19 08:36:35 51°12.81 2°49.343 -999 3.717565 34.127529 13.039606
2006-04-19 08:36:39 51°12.812 2°49.347 -999 3.716218 34.112067 13.005896
2006-04-19 08:36:45 51°12.815 2°49.354 -999 3.716218 34.112067 13.005896
2006-04-19 08:36:50 51°12.818 2°49.359 -999 3.715182 34.103173 13.005896
2006-04-19 08:36:54 51°12.82 2°49.364 -999 3.715493 34.108891 13.005896
2006-04-19 08:37:00 51°12.823 2°49.37 -999 3.715597 34.111645 13.005896
2006-04-19 08:37:04 51°12.825 2°49.375 -999 3.714872 34.105079 13.005896
2006-04-19 08:37:10 51°12.828 2°49.381 -999 3.715597 34.11334 13.039606
2006-04-19 08:37:14 51°12.83 2°49.385 -999 3.715597 34.11334 13.039606
2006-04-19 08:37:20 51°12.834 2°49.392 -999 3.714664 34.10635 13.005896
2006-04-19 08:37:24 51°12.836 2°49.396 -999 3.716943 34.131348 12.972187
2006-04-19 08:37:30 51°12.839 2°49.402 -999 3.716426 34.126899 13.005896
2006-04-19 08:37:35 51°12.842 2°49.407 -999 3.714872 34.111858 13.005896
2006-04-19 08:37:40 51°12.845 2°49.412 -999 3.717461 34.141734 13.005896
2006-04-19 08:37:44 51°12.847 2°49.416 -999 3.717461 34.141734 13.005896
2006-04-19 08:37:49 51°12.85 2°49.421 -999 3.712904 34.099359 13.005896
2006-04-19 08:37:55 51°12.854 2°49.427 -999 3.71135 34.085163 12.972187
2006-04-19 08:38:00 51°12.857 2°49.432 -999 3.711971 34.094909 12.972187
2006-04-19 08:38:05 51°12.86 2°49.437 -999 3.71394 34.118433 13.005896
2006-04-19 08:38:09 51°12.862 2°49.44 -999 3.712386 34.103386 12.938477
2006-04-19 08:38:14 51°12.865 2°49.446 -999 3.712386 34.103386 12.938477
2006-04-19 08:38:20 51°12.868 2°49.452 -999 3.713111 34.110803 12.972187
2006-04-19 08:38:25 51°12.871 2°49.457 -999 3.7128 34.108472 12.972187
2006-04-19 08:38:30 51°12.873 2°49.462 -999 3.71425 34.125006 12.938477
2006-04-19 08:38:34 51°12.875 2°49.467 -999 3.713111 34.114196 12.938477
2006-04-19 08:38:40 51°12.877 2°49.474 -999 3.712179 34.10381 12.938477
2006-04-19 08:38:45 51°12.879 2°49.48 -999 3.712179 34.10381 12.938477
2006-04-19 08:38:50 51°12.881 2°49.487 -999 3.711971 34.099995 12.938477
2006-04-19 08:38:54 51°12.883 2°49.492 -999 3.712386 34.104234 12.938477
2006-04-19 08:38:59 51°12.884 2°49.499 -999 3.713422 34.114831 12.938477
2006-04-19 08:39:05 51°12.886 2°49.508 -999 3.712696 34.106565 12.938477
2006-04-19 08:39:10 51°12.888 2°49.516 -999 3.714975 34.12903 12.938477
2006-04-19 08:39:14 51°12.89 2°49.523 -999 3.714975 34.12903 12.938477
2006-04-19 08:39:20 51°12.892 2°49.532 -999 3.714872 34.127122 12.938477
2006-04-19 08:39:25 51°12.894 2°49.54 -999 3.712282 34.100631 12.938477
2006-04-19 08:39:30 51°12.896 2°49.548 -999 3.713629 34.114406 12.938477
2006-04-19 08:39:34 51°12.897 2°49.555 -999 3.712593 34.103809 12.938477
2006-04-19 08:39:40 51°12.9 2°49.565 -999 3.713732 34.113769 12.938477
2006-04-19 08:39:45 51°12.902 2°49.573 -999 3.713732 34.113769 12.938477
2006-04-19 08:39:49 51°12.904 2°49.579 -999 3.713525 34.109954 12.904768
2006-04-19 08:39:55 51°12.906 2°49.589 -999 3.713422 34.108047 12.938477
2006-04-19 08:40:00 51°12.908 2°49.598 -999 3.713318 34.106987 12.938477
2006-04-19 08:40:04 51°12.91 2°49.604 -999 3.7128 34.099995 12.938477
2006-04-19 08:40:09 51°12.912 2°49.612 -999 3.714147 34.11292 12.938477
2006-04-19 08:40:15 51°12.914 2°49.623 -999 3.714147 34.11292 12.938477
2006-04-19 08:40:20 51°12.915 2°49.631 -999 3.715183 34.122667 12.938477
2006-04-19 08:40:25 51°12.916 2°49.64 -999 3.71166 34.086647 12.938477
2006-04-19 08:40:30 51°12.916 2°49.649 -999 3.712593 34.096181 12.938477
2006-04-19 08:40:34 51°12.916 2°49.656 -999 3.712386 34.092368 12.938477
2006-04-19 08:40:40 51°12.916 2°49.667 -999 3.712282 34.08792 12.938477
2006-04-19 08:40:44 51°12.915 2°49.674 -999 3.712282 34.08792 12.938477
2006-04-19 08:40:50 51°12.915 2°49.684 -999 3.713318 34.095123 12.904768
2006-04-19 08:40:54 51°12.914 2°49.692 -999 3.713007 34.090252 12.904768
2006-04-19 08:41:00 51°12.913 2°49.702 -999 3.713111 34.091311 12.904768
2006-04-19 08:41:05 51°12.911 2°49.711 -999 3.713629 34.096606 12.904768
2006-04-19 08:41:10 51°12.91 2°49.72 -999 3.714146 34.101054 12.904768
2006-04-19 08:41:14 51°12.909 2°49.727 -999 3.714146 34.101054 12.904768
2006-04-19 08:41:20 51°12.906 2°49.737 -999 3.71425 34.101266 12.904768
2006-04-19 08:41:25 51°12.904 2°49.746 -999 3.71425 34.102113 12.904768
2006-04-19 08:41:30 51°12.902 2°49.755 -999 3.720569 34.166728 12.904768
2006-04-19 08:41:34 51°12.9 2°49.761 -999 3.719222 34.152956 12.938477
2006-04-19 08:41:40 51°12.897 2°49.771 -999 3.717772 34.13643 12.938477
2006-04-19 08:41:44 51°12.894 2°49.778 -999 3.717772 34.13643 12.938477
2006-04-19 08:41:50 51°12.891 2°49.788 -999 3.721294 34.172446 12.938477
2006-04-19 08:41:54 51°12.888 2°49.795 -999 3.71974 34.157404 12.938477
2006-04-19 08:42:00 51°12.884 2°49.805 -999 3.717979 34.140244 12.938477
2006-04-19 08:42:04 51°12.881 2°49.812 -999 3.718912 34.14893 12.938477
2006-04-19 08:42:09 51°12.877 2°49.82 -999 3.720466 34.163971 12.938477
2006-04-19 08:42:14 51°12.873 2°49.829 -999 3.720466 34.163971 12.938477
2006-04-19 08:42:20 51°12.869 2°49.838 -999 3.71829 34.141726 12.938477
2006-04-19 08:42:25 51°12.865 2°49.846 -999 3.722123 34.181771 12.938477
2006-04-19 08:42:30 51°12.862 2°49.854 -999 3.717461 34.132404 12.972187
2006-04-19 08:42:35 51°12.858 2°49.861 -999 3.717254 34.12859 12.972187
2006-04-19 08:42:40 51°12.855 2°49.868 -999 3.718497 34.140452 12.972187
2006-04-19 08:42:45 51°12.851 2°49.875 -999 3.718497 34.140452 12.972187
2006-04-19 08:42:49 51°12.849 2°49.881 -999 3.717151 34.123293 12.972187
2006-04-19 08:42:54 51°12.846 2°49.888 -999 3.718704 34.134091 12.972187
2006-04-19 08:42:59 51°12.844 2°49.895 -999 3.717979 34.122442 13.005896
2006-04-19 08:43:05 51°12.841 2°49.903 -999 3.719222 34.131757 13.039606
2006-04-19 08:43:10 51°12.84 2°49.91 -999 3.718601 34.121169 13.005896
2006-04-19 08:43:14 51°12.839 2°49.915 -999 3.718601 34.121169 13.005896
2006-04-19 08:43:20 51°12.839 2°49.923 -999 3.718497 34.11503 13.005896